<?xml version="1.0" encoding="UTF-8" standalone="no" ?>
<gpx xmlns="http://www.topografix.com/GPX/1/1" xmlns:xsi="http://www.w3.org/2001/XMLSchema-instance" xsi:schemaLocation="http://www.topografix.com/GPX/1/1 http://www.topografix.com/GPX/1/1/gpx.xsd" version="1.1" creator="VisuGPX - https://www.visugpx.com">
  <metadata>
    <name>Puy de Naouri</name>
    <desc><![CDATA[Puy de Naouri]]></desc>
  </metadata>
  <trk>
    <name><![CDATA[Day 27-MARS-15 11:39:22 AM]]></name>
    <trkseg>
      <trkpt lat="43.76058" lon="7.07471">
        <ele>959.53</ele>
        <time>2015-03-27T10:39:22Z</time>
      </trkpt>
      <trkpt lat="43.76059" lon="7.07471">
        <ele>959.05</ele>
        <time>2015-03-27T10:39:23Z</time>
      </trkpt>
      <trkpt lat="43.76058" lon="7.07459">
        <ele>959.53</ele>
        <time>2015-03-27T10:39:47Z</time>
      </trkpt>
      <trkpt lat="43.76055" lon="7.07461">
        <ele>959.05</ele>
        <time>2015-03-27T10:39:55Z</time>
      </trkpt>
      <trkpt lat="43.76055" lon="7.07461">
        <ele>959.53</ele>
        <time>2015-03-27T10:40:06Z</time>
      </trkpt>
      <trkpt lat="43.76056" lon="7.0746">
        <ele>959.05</ele>
        <time>2015-03-27T10:40:18Z</time>
      </trkpt>
      <trkpt lat="43.76055" lon="7.07459">
        <ele>959.53</ele>
        <time>2015-03-27T10:40:19Z</time>
      </trkpt>
      <trkpt lat="43.76053" lon="7.07453">
        <ele>959.53</ele>
        <time>2015-03-27T10:40:24Z</time>
      </trkpt>
      <trkpt lat="43.76047" lon="7.07446">
        <ele>960.01</ele>
        <time>2015-03-27T10:40:33Z</time>
      </trkpt>
      <trkpt lat="43.7604" lon="7.07436">
        <ele>960.98</ele>
        <time>2015-03-27T10:40:43Z</time>
      </trkpt>
      <trkpt lat="43.76038" lon="7.07432">
        <ele>960.98</ele>
        <time>2015-03-27T10:40:47Z</time>
      </trkpt>
      <trkpt lat="43.76038" lon="7.07427">
        <ele>960.49</ele>
        <time>2015-03-27T10:40:51Z</time>
      </trkpt>
      <trkpt lat="43.76036" lon="7.07412">
        <ele>960.49</ele>
        <time>2015-03-27T10:41:02Z</time>
      </trkpt>
      <trkpt lat="43.76033" lon="7.07408">
        <ele>960.49</ele>
        <time>2015-03-27T10:41:05Z</time>
      </trkpt>
      <trkpt lat="43.76028" lon="7.0739">
        <ele>960.01</ele>
        <time>2015-03-27T10:41:18Z</time>
      </trkpt>
      <trkpt lat="43.76022" lon="7.07381">
        <ele>960.49</ele>
        <time>2015-03-27T10:41:26Z</time>
      </trkpt>
      <trkpt lat="43.7601" lon="7.07374">
        <ele>961.94</ele>
        <time>2015-03-27T10:41:38Z</time>
      </trkpt>
      <trkpt lat="43.76006" lon="7.07372">
        <ele>962.42</ele>
        <time>2015-03-27T10:41:42Z</time>
      </trkpt>
      <trkpt lat="43.75995" lon="7.07368">
        <ele>962.9</ele>
        <time>2015-03-27T10:41:53Z</time>
      </trkpt>
      <trkpt lat="43.75986" lon="7.07361">
        <ele>963.86</ele>
        <time>2015-03-27T10:42:03Z</time>
      </trkpt>
      <trkpt lat="43.75975" lon="7.07359">
        <ele>964.34</ele>
        <time>2015-03-27T10:42:14Z</time>
      </trkpt>
      <trkpt lat="43.75973" lon="7.0736">
        <ele>964.82</ele>
        <time>2015-03-27T10:42:17Z</time>
      </trkpt>
      <trkpt lat="43.75969" lon="7.07361">
        <ele>965.78</ele>
        <time>2015-03-27T10:42:27Z</time>
      </trkpt>
      <trkpt lat="43.75969" lon="7.07361">
        <ele>965.3</ele>
        <time>2015-03-27T10:42:54Z</time>
      </trkpt>
      <trkpt lat="43.75967" lon="7.0736">
        <ele>965.78</ele>
        <time>2015-03-27T10:42:56Z</time>
      </trkpt>
      <trkpt lat="43.75954" lon="7.07359">
        <ele>966.26</ele>
        <time>2015-03-27T10:43:08Z</time>
      </trkpt>
      <trkpt lat="43.7594" lon="7.0736">
        <ele>966.74</ele>
        <time>2015-03-27T10:43:21Z</time>
      </trkpt>
      <trkpt lat="43.75935" lon="7.07361">
        <ele>967.22</ele>
        <time>2015-03-27T10:43:26Z</time>
      </trkpt>
      <trkpt lat="43.75929" lon="7.07359">
        <ele>966.74</ele>
        <time>2015-03-27T10:43:32Z</time>
      </trkpt>
      <trkpt lat="43.75926" lon="7.07363">
        <ele>966.74</ele>
        <time>2015-03-27T10:43:43Z</time>
      </trkpt>
      <trkpt lat="43.75924" lon="7.07362">
        <ele>967.22</ele>
        <time>2015-03-27T10:44:04Z</time>
      </trkpt>
      <trkpt lat="43.75916" lon="7.07358">
        <ele>967.22</ele>
        <time>2015-03-27T10:44:12Z</time>
      </trkpt>
      <trkpt lat="43.75908" lon="7.0735">
        <ele>967.22</ele>
        <time>2015-03-27T10:44:21Z</time>
      </trkpt>
      <trkpt lat="43.75903" lon="7.07332">
        <ele>966.26</ele>
        <time>2015-03-27T10:44:34Z</time>
      </trkpt>
      <trkpt lat="43.75901" lon="7.07326">
        <ele>966.74</ele>
        <time>2015-03-27T10:44:39Z</time>
      </trkpt>
      <trkpt lat="43.75899" lon="7.07324">
        <ele>966.26</ele>
        <time>2015-03-27T10:44:42Z</time>
      </trkpt>
      <trkpt lat="43.75886" lon="7.07317">
        <ele>965.3</ele>
        <time>2015-03-27T10:44:53Z</time>
      </trkpt>
      <trkpt lat="43.75884" lon="7.07316">
        <ele>964.34</ele>
        <time>2015-03-27T10:44:57Z</time>
      </trkpt>
      <trkpt lat="43.75878" lon="7.07312">
        <ele>963.38</ele>
        <time>2015-03-27T10:45:06Z</time>
      </trkpt>
      <trkpt lat="43.75869" lon="7.07306">
        <ele>962.9</ele>
        <time>2015-03-27T10:45:14Z</time>
      </trkpt>
      <trkpt lat="43.75867" lon="7.07302">
        <ele>962.42</ele>
        <time>2015-03-27T10:45:18Z</time>
      </trkpt>
      <trkpt lat="43.75862" lon="7.07305">
        <ele>961.46</ele>
        <time>2015-03-27T10:45:24Z</time>
      </trkpt>
      <trkpt lat="43.75859" lon="7.073">
        <ele>960.49</ele>
        <time>2015-03-27T10:45:29Z</time>
      </trkpt>
      <trkpt lat="43.7585" lon="7.07295">
        <ele>959.53</ele>
        <time>2015-03-27T10:45:39Z</time>
      </trkpt>
      <trkpt lat="43.75848" lon="7.07289">
        <ele>958.57</ele>
        <time>2015-03-27T10:45:45Z</time>
      </trkpt>
      <trkpt lat="43.75841" lon="7.0728">
        <ele>957.61</ele>
        <time>2015-03-27T10:45:56Z</time>
      </trkpt>
      <trkpt lat="43.75839" lon="7.07276">
        <ele>956.65</ele>
        <time>2015-03-27T10:46:00Z</time>
      </trkpt>
      <trkpt lat="43.75836" lon="7.07273">
        <ele>956.65</ele>
        <time>2015-03-27T10:46:03Z</time>
      </trkpt>
      <trkpt lat="43.75835" lon="7.0727">
        <ele>956.17</ele>
        <time>2015-03-27T10:46:05Z</time>
      </trkpt>
      <trkpt lat="43.75833" lon="7.07268">
        <ele>956.17</ele>
        <time>2015-03-27T10:46:08Z</time>
      </trkpt>
      <trkpt lat="43.75831" lon="7.07266">
        <ele>955.69</ele>
        <time>2015-03-27T10:46:12Z</time>
      </trkpt>
      <trkpt lat="43.75826" lon="7.07261">
        <ele>954.73</ele>
        <time>2015-03-27T10:46:18Z</time>
      </trkpt>
      <trkpt lat="43.75816" lon="7.07254">
        <ele>953.28</ele>
        <time>2015-03-27T10:46:28Z</time>
      </trkpt>
      <trkpt lat="43.75816" lon="7.07254">
        <ele>952.32</ele>
        <time>2015-03-27T10:46:29Z</time>
      </trkpt>
      <trkpt lat="43.75812" lon="7.07255">
        <ele>951.84</ele>
        <time>2015-03-27T10:46:33Z</time>
      </trkpt>
      <trkpt lat="43.75804" lon="7.07255">
        <ele>950.4</ele>
        <time>2015-03-27T10:46:43Z</time>
      </trkpt>
      <trkpt lat="43.75799" lon="7.07251">
        <ele>948.96</ele>
        <time>2015-03-27T10:46:51Z</time>
      </trkpt>
      <trkpt lat="43.75798" lon="7.07251">
        <ele>948</ele>
        <time>2015-03-27T10:46:53Z</time>
      </trkpt>
      <trkpt lat="43.75793" lon="7.07258">
        <ele>946.56</ele>
        <time>2015-03-27T10:46:59Z</time>
      </trkpt>
      <trkpt lat="43.75787" lon="7.07255">
        <ele>946.56</ele>
        <time>2015-03-27T10:47:06Z</time>
      </trkpt>
      <trkpt lat="43.75785" lon="7.07253">
        <ele>946.07</ele>
        <time>2015-03-27T10:47:08Z</time>
      </trkpt>
      <trkpt lat="43.75776" lon="7.07251">
        <ele>944.15</ele>
        <time>2015-03-27T10:47:18Z</time>
      </trkpt>
      <trkpt lat="43.75776" lon="7.07251">
        <ele>943.67</ele>
        <time>2015-03-27T10:47:19Z</time>
      </trkpt>
      <trkpt lat="43.75766" lon="7.07246">
        <ele>941.75</ele>
        <time>2015-03-27T10:47:28Z</time>
      </trkpt>
      <trkpt lat="43.7576" lon="7.07242">
        <ele>940.79</ele>
        <time>2015-03-27T10:47:34Z</time>
      </trkpt>
      <trkpt lat="43.75753" lon="7.07241">
        <ele>939.83</ele>
        <time>2015-03-27T10:47:41Z</time>
      </trkpt>
      <trkpt lat="43.7575" lon="7.0724">
        <ele>939.35</ele>
        <time>2015-03-27T10:47:43Z</time>
      </trkpt>
      <trkpt lat="43.75746" lon="7.07243">
        <ele>938.38</ele>
        <time>2015-03-27T10:47:47Z</time>
      </trkpt>
      <trkpt lat="43.75741" lon="7.07251">
        <ele>937.42</ele>
        <time>2015-03-27T10:47:56Z</time>
      </trkpt>
      <trkpt lat="43.75736" lon="7.07248">
        <ele>936.46</ele>
        <time>2015-03-27T10:48:02Z</time>
      </trkpt>
      <trkpt lat="43.75735" lon="7.07243">
        <ele>935.98</ele>
        <time>2015-03-27T10:48:05Z</time>
      </trkpt>
      <trkpt lat="43.75732" lon="7.07236">
        <ele>935.98</ele>
        <time>2015-03-27T10:48:11Z</time>
      </trkpt>
      <trkpt lat="43.75736" lon="7.07222">
        <ele>936.46</ele>
        <time>2015-03-27T10:48:24Z</time>
      </trkpt>
      <trkpt lat="43.75739" lon="7.07203">
        <ele>937.42</ele>
        <time>2015-03-27T10:48:35Z</time>
      </trkpt>
      <trkpt lat="43.75737" lon="7.072">
        <ele>937.42</ele>
        <time>2015-03-27T10:48:37Z</time>
      </trkpt>
      <trkpt lat="43.75726" lon="7.07191">
        <ele>938.86</ele>
        <time>2015-03-27T10:48:48Z</time>
      </trkpt>
      <trkpt lat="43.75711" lon="7.0719">
        <ele>938.38</ele>
        <time>2015-03-27T10:48:59Z</time>
      </trkpt>
      <trkpt lat="43.75698" lon="7.07192">
        <ele>938.38</ele>
        <time>2015-03-27T10:49:11Z</time>
      </trkpt>
      <trkpt lat="43.75684" lon="7.07191">
        <ele>939.35</ele>
        <time>2015-03-27T10:49:23Z</time>
      </trkpt>
      <trkpt lat="43.75675" lon="7.0719">
        <ele>939.83</ele>
        <time>2015-03-27T10:49:32Z</time>
      </trkpt>
      <trkpt lat="43.7567" lon="7.07188">
        <ele>940.31</ele>
        <time>2015-03-27T10:49:36Z</time>
      </trkpt>
      <trkpt lat="43.75668" lon="7.07187">
        <ele>940.31</ele>
        <time>2015-03-27T10:49:38Z</time>
      </trkpt>
      <trkpt lat="43.75658" lon="7.07175">
        <ele>940.31</ele>
        <time>2015-03-27T10:49:49Z</time>
      </trkpt>
      <trkpt lat="43.7565" lon="7.07155">
        <ele>940.79</ele>
        <time>2015-03-27T10:50:03Z</time>
      </trkpt>
      <trkpt lat="43.75649" lon="7.07142">
        <ele>942.23</ele>
        <time>2015-03-27T10:50:13Z</time>
      </trkpt>
      <trkpt lat="43.75648" lon="7.07138">
        <ele>942.23</ele>
        <time>2015-03-27T10:50:17Z</time>
      </trkpt>
      <trkpt lat="43.75648" lon="7.07132">
        <ele>942.71</ele>
        <time>2015-03-27T10:50:20Z</time>
      </trkpt>
      <trkpt lat="43.75646" lon="7.07116">
        <ele>943.19</ele>
        <time>2015-03-27T10:50:30Z</time>
      </trkpt>
      <trkpt lat="43.75641" lon="7.07101">
        <ele>944.63</ele>
        <time>2015-03-27T10:50:41Z</time>
      </trkpt>
      <trkpt lat="43.75638" lon="7.07097">
        <ele>946.07</ele>
        <time>2015-03-27T10:50:44Z</time>
      </trkpt>
      <trkpt lat="43.75636" lon="7.07097">
        <ele>944.63</ele>
        <time>2015-03-27T10:50:54Z</time>
      </trkpt>
      <trkpt lat="43.75632" lon="7.0709">
        <ele>944.63</ele>
        <time>2015-03-27T10:51:07Z</time>
      </trkpt>
      <trkpt lat="43.75632" lon="7.07086">
        <ele>944.15</ele>
        <time>2015-03-27T10:51:10Z</time>
      </trkpt>
      <trkpt lat="43.75627" lon="7.07075">
        <ele>945.11</ele>
        <time>2015-03-27T10:51:18Z</time>
      </trkpt>
      <trkpt lat="43.7562" lon="7.07058">
        <ele>946.56</ele>
        <time>2015-03-27T10:51:30Z</time>
      </trkpt>
      <trkpt lat="43.75613" lon="7.07037">
        <ele>946.07</ele>
        <time>2015-03-27T10:51:43Z</time>
      </trkpt>
      <trkpt lat="43.75611" lon="7.07023">
        <ele>946.56</ele>
        <time>2015-03-27T10:51:52Z</time>
      </trkpt>
      <trkpt lat="43.75612" lon="7.07009">
        <ele>947.52</ele>
        <time>2015-03-27T10:52:03Z</time>
      </trkpt>
      <trkpt lat="43.7561" lon="7.0699">
        <ele>948</ele>
        <time>2015-03-27T10:52:13Z</time>
      </trkpt>
      <trkpt lat="43.75607" lon="7.06974">
        <ele>948.48</ele>
        <time>2015-03-27T10:52:22Z</time>
      </trkpt>
      <trkpt lat="43.75605" lon="7.06969">
        <ele>948.96</ele>
        <time>2015-03-27T10:52:25Z</time>
      </trkpt>
      <trkpt lat="43.75602" lon="7.06963">
        <ele>948.48</ele>
        <time>2015-03-27T10:52:29Z</time>
      </trkpt>
      <trkpt lat="43.75594" lon="7.06947">
        <ele>948.96</ele>
        <time>2015-03-27T10:52:41Z</time>
      </trkpt>
      <trkpt lat="43.75586" lon="7.06935">
        <ele>950.4</ele>
        <time>2015-03-27T10:52:53Z</time>
      </trkpt>
      <trkpt lat="43.75584" lon="7.06923">
        <ele>951.84</ele>
        <time>2015-03-27T10:53:01Z</time>
      </trkpt>
      <trkpt lat="43.75585" lon="7.06906">
        <ele>953.77</ele>
        <time>2015-03-27T10:53:13Z</time>
      </trkpt>
      <trkpt lat="43.75586" lon="7.06893">
        <ele>953.77</ele>
        <time>2015-03-27T10:53:25Z</time>
      </trkpt>
      <trkpt lat="43.75587" lon="7.06891">
        <ele>953.77</ele>
        <time>2015-03-27T10:53:30Z</time>
      </trkpt>
      <trkpt lat="43.75597" lon="7.06881">
        <ele>955.21</ele>
        <time>2015-03-27T10:53:41Z</time>
      </trkpt>
      <trkpt lat="43.75599" lon="7.06876">
        <ele>955.21</ele>
        <time>2015-03-27T10:53:45Z</time>
      </trkpt>
      <trkpt lat="43.75601" lon="7.06859">
        <ele>955.21</ele>
        <time>2015-03-27T10:53:56Z</time>
      </trkpt>
      <trkpt lat="43.75605" lon="7.0684">
        <ele>955.21</ele>
        <time>2015-03-27T10:54:07Z</time>
      </trkpt>
      <trkpt lat="43.75604" lon="7.06824">
        <ele>954.25</ele>
        <time>2015-03-27T10:54:17Z</time>
      </trkpt>
      <trkpt lat="43.75603" lon="7.06795">
        <ele>953.28</ele>
        <time>2015-03-27T10:54:31Z</time>
      </trkpt>
      <trkpt lat="43.75602" lon="7.06779">
        <ele>952.32</ele>
        <time>2015-03-27T10:54:43Z</time>
      </trkpt>
      <trkpt lat="43.75602" lon="7.06777">
        <ele>952.32</ele>
        <time>2015-03-27T10:54:44Z</time>
      </trkpt>
      <trkpt lat="43.75601" lon="7.06762">
        <ele>952.32</ele>
        <time>2015-03-27T10:54:53Z</time>
      </trkpt>
      <trkpt lat="43.75603" lon="7.06756">
        <ele>952.32</ele>
        <time>2015-03-27T10:54:56Z</time>
      </trkpt>
      <trkpt lat="43.75609" lon="7.06732">
        <ele>953.28</ele>
        <time>2015-03-27T10:55:10Z</time>
      </trkpt>
      <trkpt lat="43.75613" lon="7.06709">
        <ele>953.77</ele>
        <time>2015-03-27T10:55:23Z</time>
      </trkpt>
      <trkpt lat="43.75613" lon="7.06695">
        <ele>954.25</ele>
        <time>2015-03-27T10:55:30Z</time>
      </trkpt>
      <trkpt lat="43.75608" lon="7.06674">
        <ele>954.25</ele>
        <time>2015-03-27T10:55:43Z</time>
      </trkpt>
      <trkpt lat="43.75605" lon="7.06656">
        <ele>954.73</ele>
        <time>2015-03-27T10:55:55Z</time>
      </trkpt>
      <trkpt lat="43.75598" lon="7.0664">
        <ele>955.21</ele>
        <time>2015-03-27T10:56:06Z</time>
      </trkpt>
      <trkpt lat="43.75595" lon="7.06629">
        <ele>956.17</ele>
        <time>2015-03-27T10:56:16Z</time>
      </trkpt>
      <trkpt lat="43.75594" lon="7.06627">
        <ele>956.17</ele>
        <time>2015-03-27T10:56:18Z</time>
      </trkpt>
      <trkpt lat="43.75592" lon="7.06622">
        <ele>956.65</ele>
        <time>2015-03-27T10:56:22Z</time>
      </trkpt>
      <trkpt lat="43.75585" lon="7.06606">
        <ele>958.09</ele>
        <time>2015-03-27T10:56:33Z</time>
      </trkpt>
      <trkpt lat="43.75581" lon="7.06597">
        <ele>958.09</ele>
        <time>2015-03-27T10:56:40Z</time>
      </trkpt>
      <trkpt lat="43.75579" lon="7.06591">
        <ele>958.57</ele>
        <time>2015-03-27T10:56:44Z</time>
      </trkpt>
      <trkpt lat="43.75567" lon="7.06575">
        <ele>960.01</ele>
        <time>2015-03-27T10:56:58Z</time>
      </trkpt>
      <trkpt lat="43.75566" lon="7.06574">
        <ele>960.49</ele>
        <time>2015-03-27T10:57:00Z</time>
      </trkpt>
      <trkpt lat="43.75563" lon="7.06572">
        <ele>960.49</ele>
        <time>2015-03-27T10:57:04Z</time>
      </trkpt>
      <trkpt lat="43.75561" lon="7.06569">
        <ele>960.49</ele>
        <time>2015-03-27T10:57:06Z</time>
      </trkpt>
      <trkpt lat="43.75552" lon="7.06552">
        <ele>961.46</ele>
        <time>2015-03-27T10:57:18Z</time>
      </trkpt>
      <trkpt lat="43.75545" lon="7.06538">
        <ele>960.49</ele>
        <time>2015-03-27T10:57:28Z</time>
      </trkpt>
      <trkpt lat="43.75538" lon="7.06517">
        <ele>959.53</ele>
        <time>2015-03-27T10:57:40Z</time>
      </trkpt>
      <trkpt lat="43.75535" lon="7.0651">
        <ele>959.05</ele>
        <time>2015-03-27T10:57:47Z</time>
      </trkpt>
      <trkpt lat="43.75527" lon="7.06494">
        <ele>958.57</ele>
        <time>2015-03-27T10:57:59Z</time>
      </trkpt>
      <trkpt lat="43.75524" lon="7.06491">
        <ele>958.57</ele>
        <time>2015-03-27T10:58:02Z</time>
      </trkpt>
      <trkpt lat="43.75515" lon="7.06483">
        <ele>958.57</ele>
        <time>2015-03-27T10:58:12Z</time>
      </trkpt>
      <trkpt lat="43.75507" lon="7.06472">
        <ele>958.57</ele>
        <time>2015-03-27T10:58:20Z</time>
      </trkpt>
      <trkpt lat="43.75499" lon="7.06466">
        <ele>958.57</ele>
        <time>2015-03-27T10:58:27Z</time>
      </trkpt>
      <trkpt lat="43.75488" lon="7.06451">
        <ele>959.53</ele>
        <time>2015-03-27T10:58:39Z</time>
      </trkpt>
      <trkpt lat="43.75476" lon="7.0644">
        <ele>960.98</ele>
        <time>2015-03-27T10:58:51Z</time>
      </trkpt>
      <trkpt lat="43.75466" lon="7.06436">
        <ele>960.98</ele>
        <time>2015-03-27T10:59:00Z</time>
      </trkpt>
      <trkpt lat="43.75459" lon="7.06435">
        <ele>962.42</ele>
        <time>2015-03-27T10:59:06Z</time>
      </trkpt>
      <trkpt lat="43.75452" lon="7.06436">
        <ele>961.94</ele>
        <time>2015-03-27T10:59:12Z</time>
      </trkpt>
      <trkpt lat="43.75442" lon="7.06436">
        <ele>962.42</ele>
        <time>2015-03-27T10:59:21Z</time>
      </trkpt>
      <trkpt lat="43.75435" lon="7.06439">
        <ele>962.42</ele>
        <time>2015-03-27T10:59:27Z</time>
      </trkpt>
      <trkpt lat="43.75433" lon="7.0644">
        <ele>961.94</ele>
        <time>2015-03-27T10:59:29Z</time>
      </trkpt>
      <trkpt lat="43.7543" lon="7.0644">
        <ele>962.42</ele>
        <time>2015-03-27T10:59:31Z</time>
      </trkpt>
      <trkpt lat="43.75428" lon="7.06441">
        <ele>961.94</ele>
        <time>2015-03-27T10:59:33Z</time>
      </trkpt>
      <trkpt lat="43.75422" lon="7.06441">
        <ele>961.46</ele>
        <time>2015-03-27T10:59:38Z</time>
      </trkpt>
      <trkpt lat="43.75419" lon="7.06438">
        <ele>962.42</ele>
        <time>2015-03-27T10:59:41Z</time>
      </trkpt>
      <trkpt lat="43.75415" lon="7.06437">
        <ele>961.94</ele>
        <time>2015-03-27T10:59:45Z</time>
      </trkpt>
      <trkpt lat="43.75403" lon="7.06434">
        <ele>961.94</ele>
        <time>2015-03-27T10:59:55Z</time>
      </trkpt>
      <trkpt lat="43.75402" lon="7.06434">
        <ele>961.94</ele>
        <time>2015-03-27T10:59:56Z</time>
      </trkpt>
      <trkpt lat="43.75395" lon="7.06432">
        <ele>961.46</ele>
        <time>2015-03-27T11:00:05Z</time>
      </trkpt>
      <trkpt lat="43.75383" lon="7.06432">
        <ele>961.46</ele>
        <time>2015-03-27T11:00:16Z</time>
      </trkpt>
      <trkpt lat="43.75368" lon="7.06428">
        <ele>963.86</ele>
        <time>2015-03-27T11:00:29Z</time>
      </trkpt>
      <trkpt lat="43.75364" lon="7.06419">
        <ele>965.3</ele>
        <time>2015-03-27T11:00:36Z</time>
      </trkpt>
      <trkpt lat="43.75358" lon="7.06404">
        <ele>965.78</ele>
        <time>2015-03-27T11:00:47Z</time>
      </trkpt>
      <trkpt lat="43.75356" lon="7.06401">
        <ele>966.26</ele>
        <time>2015-03-27T11:00:50Z</time>
      </trkpt>
      <trkpt lat="43.75348" lon="7.06394">
        <ele>966.74</ele>
        <time>2015-03-27T11:00:58Z</time>
      </trkpt>
      <trkpt lat="43.75337" lon="7.06396">
        <ele>967.7</ele>
        <time>2015-03-27T11:01:07Z</time>
      </trkpt>
      <trkpt lat="43.75331" lon="7.06398">
        <ele>968.18</ele>
        <time>2015-03-27T11:01:12Z</time>
      </trkpt>
      <trkpt lat="43.75323" lon="7.06398">
        <ele>968.67</ele>
        <time>2015-03-27T11:01:18Z</time>
      </trkpt>
      <trkpt lat="43.75309" lon="7.06392">
        <ele>968.67</ele>
        <time>2015-03-27T11:01:31Z</time>
      </trkpt>
      <trkpt lat="43.75303" lon="7.06389">
        <ele>968.67</ele>
        <time>2015-03-27T11:01:37Z</time>
      </trkpt>
      <trkpt lat="43.75289" lon="7.06388">
        <ele>970.11</ele>
        <time>2015-03-27T11:01:49Z</time>
      </trkpt>
      <trkpt lat="43.7528" lon="7.06378">
        <ele>971.07</ele>
        <time>2015-03-27T11:01:59Z</time>
      </trkpt>
      <trkpt lat="43.75272" lon="7.06373">
        <ele>971.07</ele>
        <time>2015-03-27T11:02:08Z</time>
      </trkpt>
      <trkpt lat="43.75267" lon="7.06364">
        <ele>970.59</ele>
        <time>2015-03-27T11:02:16Z</time>
      </trkpt>
      <trkpt lat="43.75266" lon="7.06345">
        <ele>971.07</ele>
        <time>2015-03-27T11:02:27Z</time>
      </trkpt>
      <trkpt lat="43.75264" lon="7.0634">
        <ele>971.07</ele>
        <time>2015-03-27T11:02:32Z</time>
      </trkpt>
      <trkpt lat="43.75261" lon="7.06336">
        <ele>970.59</ele>
        <time>2015-03-27T11:02:36Z</time>
      </trkpt>
      <trkpt lat="43.75256" lon="7.06318">
        <ele>969.15</ele>
        <time>2015-03-27T11:02:47Z</time>
      </trkpt>
      <trkpt lat="43.75256" lon="7.06306">
        <ele>969.15</ele>
        <time>2015-03-27T11:02:55Z</time>
      </trkpt>
      <trkpt lat="43.7525" lon="7.06296">
        <ele>969.63</ele>
        <time>2015-03-27T11:03:04Z</time>
      </trkpt>
      <trkpt lat="43.75241" lon="7.06276">
        <ele>968.67</ele>
        <time>2015-03-27T11:03:16Z</time>
      </trkpt>
      <trkpt lat="43.75237" lon="7.06257">
        <ele>969.63</ele>
        <time>2015-03-27T11:03:28Z</time>
      </trkpt>
      <trkpt lat="43.7523" lon="7.06246">
        <ele>970.11</ele>
        <time>2015-03-27T11:03:37Z</time>
      </trkpt>
      <trkpt lat="43.75228" lon="7.06241">
        <ele>970.11</ele>
        <time>2015-03-27T11:03:41Z</time>
      </trkpt>
      <trkpt lat="43.75227" lon="7.06236">
        <ele>970.11</ele>
        <time>2015-03-27T11:03:45Z</time>
      </trkpt>
      <trkpt lat="43.75225" lon="7.06223">
        <ele>969.63</ele>
        <time>2015-03-27T11:03:53Z</time>
      </trkpt>
      <trkpt lat="43.75222" lon="7.06218">
        <ele>968.67</ele>
        <time>2015-03-27T11:03:58Z</time>
      </trkpt>
      <trkpt lat="43.75216" lon="7.06211">
        <ele>967.7</ele>
        <time>2015-03-27T11:04:04Z</time>
      </trkpt>
      <trkpt lat="43.75209" lon="7.06199">
        <ele>966.26</ele>
        <time>2015-03-27T11:04:14Z</time>
      </trkpt>
      <trkpt lat="43.752" lon="7.0618">
        <ele>964.34</ele>
        <time>2015-03-27T11:04:25Z</time>
      </trkpt>
      <trkpt lat="43.75196" lon="7.06178">
        <ele>964.34</ele>
        <time>2015-03-27T11:04:30Z</time>
      </trkpt>
      <trkpt lat="43.75184" lon="7.06162">
        <ele>962.9</ele>
        <time>2015-03-27T11:04:42Z</time>
      </trkpt>
      <trkpt lat="43.75177" lon="7.06151">
        <ele>961.46</ele>
        <time>2015-03-27T11:04:53Z</time>
      </trkpt>
      <trkpt lat="43.75173" lon="7.06149">
        <ele>960.98</ele>
        <time>2015-03-27T11:04:56Z</time>
      </trkpt>
      <trkpt lat="43.75166" lon="7.06137">
        <ele>960.49</ele>
        <time>2015-03-27T11:05:05Z</time>
      </trkpt>
      <trkpt lat="43.75158" lon="7.06128">
        <ele>960.49</ele>
        <time>2015-03-27T11:05:13Z</time>
      </trkpt>
      <trkpt lat="43.75152" lon="7.06121">
        <ele>960.98</ele>
        <time>2015-03-27T11:05:26Z</time>
      </trkpt>
      <trkpt lat="43.75153" lon="7.0612">
        <ele>960.98</ele>
        <time>2015-03-27T11:05:33Z</time>
      </trkpt>
      <trkpt lat="43.75151" lon="7.06118">
        <ele>961.46</ele>
        <time>2015-03-27T11:05:35Z</time>
      </trkpt>
      <trkpt lat="43.7515" lon="7.06116">
        <ele>960.98</ele>
        <time>2015-03-27T11:05:37Z</time>
      </trkpt>
      <trkpt lat="43.75135" lon="7.06102">
        <ele>960.98</ele>
        <time>2015-03-27T11:05:50Z</time>
      </trkpt>
      <trkpt lat="43.75128" lon="7.06094">
        <ele>960.98</ele>
        <time>2015-03-27T11:05:58Z</time>
      </trkpt>
      <trkpt lat="43.75117" lon="7.06081">
        <ele>960.98</ele>
        <time>2015-03-27T11:06:10Z</time>
      </trkpt>
      <trkpt lat="43.75108" lon="7.06073">
        <ele>959.53</ele>
        <time>2015-03-27T11:06:20Z</time>
      </trkpt>
      <trkpt lat="43.75101" lon="7.06067">
        <ele>958.57</ele>
        <time>2015-03-27T11:06:27Z</time>
      </trkpt>
      <trkpt lat="43.75093" lon="7.06063">
        <ele>956.17</ele>
        <time>2015-03-27T11:06:38Z</time>
      </trkpt>
      <trkpt lat="43.75091" lon="7.06063">
        <ele>956.17</ele>
        <time>2015-03-27T11:06:39Z</time>
      </trkpt>
      <trkpt lat="43.75083" lon="7.06054">
        <ele>956.17</ele>
        <time>2015-03-27T11:06:50Z</time>
      </trkpt>
      <trkpt lat="43.75073" lon="7.06047">
        <ele>956.17</ele>
        <time>2015-03-27T11:07:01Z</time>
      </trkpt>
      <trkpt lat="43.75064" lon="7.06044">
        <ele>956.65</ele>
        <time>2015-03-27T11:07:09Z</time>
      </trkpt>
      <trkpt lat="43.75053" lon="7.06033">
        <ele>957.13</ele>
        <time>2015-03-27T11:07:20Z</time>
      </trkpt>
      <trkpt lat="43.75052" lon="7.06032">
        <ele>957.13</ele>
        <time>2015-03-27T11:07:21Z</time>
      </trkpt>
      <trkpt lat="43.75045" lon="7.06027">
        <ele>956.65</ele>
        <time>2015-03-27T11:07:26Z</time>
      </trkpt>
      <trkpt lat="43.75035" lon="7.06019">
        <ele>956.65</ele>
        <time>2015-03-27T11:07:36Z</time>
      </trkpt>
      <trkpt lat="43.7503" lon="7.06002">
        <ele>957.13</ele>
        <time>2015-03-27T11:07:47Z</time>
      </trkpt>
      <trkpt lat="43.75029" lon="7.05983">
        <ele>957.13</ele>
        <time>2015-03-27T11:07:59Z</time>
      </trkpt>
      <trkpt lat="43.75027" lon="7.05966">
        <ele>956.65</ele>
        <time>2015-03-27T11:08:10Z</time>
      </trkpt>
      <trkpt lat="43.75027" lon="7.05961">
        <ele>956.65</ele>
        <time>2015-03-27T11:08:13Z</time>
      </trkpt>
      <trkpt lat="43.75023" lon="7.05936">
        <ele>956.65</ele>
        <time>2015-03-27T11:08:26Z</time>
      </trkpt>
      <trkpt lat="43.75016" lon="7.05924">
        <ele>956.17</ele>
        <time>2015-03-27T11:08:37Z</time>
      </trkpt>
      <trkpt lat="43.75013" lon="7.05915">
        <ele>958.09</ele>
        <time>2015-03-27T11:08:46Z</time>
      </trkpt>
      <trkpt lat="43.75008" lon="7.05904">
        <ele>958.57</ele>
        <time>2015-03-27T11:08:56Z</time>
      </trkpt>
      <trkpt lat="43.75008" lon="7.05891">
        <ele>960.01</ele>
        <time>2015-03-27T11:09:06Z</time>
      </trkpt>
      <trkpt lat="43.75007" lon="7.05884">
        <ele>960.49</ele>
        <time>2015-03-27T11:09:11Z</time>
      </trkpt>
      <trkpt lat="43.75006" lon="7.05873">
        <ele>960.98</ele>
        <time>2015-03-27T11:09:18Z</time>
      </trkpt>
      <trkpt lat="43.75" lon="7.05853">
        <ele>960.49</ele>
        <time>2015-03-27T11:09:29Z</time>
      </trkpt>
      <trkpt lat="43.74996" lon="7.0583">
        <ele>960.49</ele>
        <time>2015-03-27T11:09:42Z</time>
      </trkpt>
      <trkpt lat="43.74991" lon="7.05814">
        <ele>960.98</ele>
        <time>2015-03-27T11:09:53Z</time>
      </trkpt>
      <trkpt lat="43.74989" lon="7.0581">
        <ele>960.98</ele>
        <time>2015-03-27T11:09:57Z</time>
      </trkpt>
      <trkpt lat="43.74978" lon="7.05795">
        <ele>960.49</ele>
        <time>2015-03-27T11:10:09Z</time>
      </trkpt>
      <trkpt lat="43.74968" lon="7.05784">
        <ele>961.46</ele>
        <time>2015-03-27T11:10:21Z</time>
      </trkpt>
      <trkpt lat="43.74965" lon="7.0578">
        <ele>960.98</ele>
        <time>2015-03-27T11:10:25Z</time>
      </trkpt>
      <trkpt lat="43.74961" lon="7.05773">
        <ele>960.98</ele>
        <time>2015-03-27T11:10:29Z</time>
      </trkpt>
      <trkpt lat="43.74958" lon="7.0576">
        <ele>960.49</ele>
        <time>2015-03-27T11:10:38Z</time>
      </trkpt>
      <trkpt lat="43.74956" lon="7.05754">
        <ele>960.49</ele>
        <time>2015-03-27T11:10:49Z</time>
      </trkpt>
      <trkpt lat="43.74956" lon="7.05756">
        <ele>961.46</ele>
        <time>2015-03-27T11:11:17Z</time>
      </trkpt>
      <trkpt lat="43.74954" lon="7.05755">
        <ele>960.01</ele>
        <time>2015-03-27T11:11:29Z</time>
      </trkpt>
      <trkpt lat="43.74951" lon="7.05753">
        <ele>959.53</ele>
        <time>2015-03-27T11:11:32Z</time>
      </trkpt>
      <trkpt lat="43.74947" lon="7.05749">
        <ele>958.09</ele>
        <time>2015-03-27T11:11:36Z</time>
      </trkpt>
      <trkpt lat="43.74945" lon="7.05745">
        <ele>957.61</ele>
        <time>2015-03-27T11:11:39Z</time>
      </trkpt>
      <trkpt lat="43.74933" lon="7.05733">
        <ele>956.17</ele>
        <time>2015-03-27T11:11:49Z</time>
      </trkpt>
      <trkpt lat="43.74924" lon="7.05728">
        <ele>956.17</ele>
        <time>2015-03-27T11:11:57Z</time>
      </trkpt>
      <trkpt lat="43.74912" lon="7.0572">
        <ele>957.13</ele>
        <time>2015-03-27T11:12:08Z</time>
      </trkpt>
      <trkpt lat="43.74909" lon="7.05718">
        <ele>957.13</ele>
        <time>2015-03-27T11:12:11Z</time>
      </trkpt>
      <trkpt lat="43.74901" lon="7.05709">
        <ele>959.05</ele>
        <time>2015-03-27T11:12:20Z</time>
      </trkpt>
      <trkpt lat="43.74894" lon="7.05702">
        <ele>960.49</ele>
        <time>2015-03-27T11:12:28Z</time>
      </trkpt>
      <trkpt lat="43.74889" lon="7.05693">
        <ele>960.98</ele>
        <time>2015-03-27T11:12:36Z</time>
      </trkpt>
      <trkpt lat="43.74884" lon="7.05686">
        <ele>961.94</ele>
        <time>2015-03-27T11:12:46Z</time>
      </trkpt>
      <trkpt lat="43.74877" lon="7.05671">
        <ele>962.42</ele>
        <time>2015-03-27T11:12:59Z</time>
      </trkpt>
      <trkpt lat="43.74865" lon="7.05662">
        <ele>962.9</ele>
        <time>2015-03-27T11:13:11Z</time>
      </trkpt>
      <trkpt lat="43.74854" lon="7.05651">
        <ele>962.42</ele>
        <time>2015-03-27T11:13:24Z</time>
      </trkpt>
      <trkpt lat="43.7485" lon="7.0564">
        <ele>962.9</ele>
        <time>2015-03-27T11:13:33Z</time>
      </trkpt>
      <trkpt lat="43.7484" lon="7.05629">
        <ele>962.42</ele>
        <time>2015-03-27T11:13:44Z</time>
      </trkpt>
      <trkpt lat="43.74834" lon="7.05627">
        <ele>961.94</ele>
        <time>2015-03-27T11:13:49Z</time>
      </trkpt>
      <trkpt lat="43.74827" lon="7.05624">
        <ele>961.46</ele>
        <time>2015-03-27T11:14:02Z</time>
      </trkpt>
      <trkpt lat="43.74825" lon="7.05622">
        <ele>961.46</ele>
        <time>2015-03-27T11:14:14Z</time>
      </trkpt>
      <trkpt lat="43.74818" lon="7.05611">
        <ele>961.46</ele>
        <time>2015-03-27T11:14:24Z</time>
      </trkpt>
      <trkpt lat="43.7481" lon="7.05599">
        <ele>960.98</ele>
        <time>2015-03-27T11:14:34Z</time>
      </trkpt>
      <trkpt lat="43.74809" lon="7.05597">
        <ele>960.98</ele>
        <time>2015-03-27T11:14:36Z</time>
      </trkpt>
      <trkpt lat="43.74801" lon="7.05588">
        <ele>961.94</ele>
        <time>2015-03-27T11:14:45Z</time>
      </trkpt>
      <trkpt lat="43.74801" lon="7.05581">
        <ele>961.94</ele>
        <time>2015-03-27T11:14:57Z</time>
      </trkpt>
      <trkpt lat="43.74808" lon="7.05577">
        <ele>962.9</ele>
        <time>2015-03-27T11:15:06Z</time>
      </trkpt>
      <trkpt lat="43.74812" lon="7.05569">
        <ele>965.3</ele>
        <time>2015-03-27T11:15:15Z</time>
      </trkpt>
      <trkpt lat="43.74818" lon="7.05565">
        <ele>966.26</ele>
        <time>2015-03-27T11:15:23Z</time>
      </trkpt>
      <trkpt lat="43.74826" lon="7.05561">
        <ele>968.18</ele>
        <time>2015-03-27T11:15:33Z</time>
      </trkpt>
      <trkpt lat="43.74831" lon="7.05558">
        <ele>968.67</ele>
        <time>2015-03-27T11:15:39Z</time>
      </trkpt>
      <trkpt lat="43.74842" lon="7.05552">
        <ele>969.63</ele>
        <time>2015-03-27T11:15:50Z</time>
      </trkpt>
      <trkpt lat="43.74844" lon="7.05551">
        <ele>970.11</ele>
        <time>2015-03-27T11:15:53Z</time>
      </trkpt>
      <trkpt lat="43.74846" lon="7.05548">
        <ele>970.59</ele>
        <time>2015-03-27T11:15:57Z</time>
      </trkpt>
      <trkpt lat="43.74852" lon="7.05534">
        <ele>970.59</ele>
        <time>2015-03-27T11:16:08Z</time>
      </trkpt>
      <trkpt lat="43.74854" lon="7.0553">
        <ele>971.07</ele>
        <time>2015-03-27T11:16:11Z</time>
      </trkpt>
      <trkpt lat="43.74858" lon="7.05526">
        <ele>971.07</ele>
        <time>2015-03-27T11:16:22Z</time>
      </trkpt>
      <trkpt lat="43.74857" lon="7.05525">
        <ele>971.55</ele>
        <time>2015-03-27T11:16:42Z</time>
      </trkpt>
      <trkpt lat="43.74861" lon="7.05521">
        <ele>970.59</ele>
        <time>2015-03-27T11:16:53Z</time>
      </trkpt>
      <trkpt lat="43.74864" lon="7.05517">
        <ele>970.11</ele>
        <time>2015-03-27T11:16:57Z</time>
      </trkpt>
      <trkpt lat="43.74864" lon="7.05506">
        <ele>970.11</ele>
        <time>2015-03-27T11:17:04Z</time>
      </trkpt>
      <trkpt lat="43.74869" lon="7.05508">
        <ele>970.11</ele>
        <time>2015-03-27T11:17:12Z</time>
      </trkpt>
      <trkpt lat="43.74876" lon="7.05512">
        <ele>969.15</ele>
        <time>2015-03-27T11:17:18Z</time>
      </trkpt>
      <trkpt lat="43.74885" lon="7.05506">
        <ele>968.67</ele>
        <time>2015-03-27T11:17:27Z</time>
      </trkpt>
      <trkpt lat="43.74897" lon="7.05503">
        <ele>968.18</ele>
        <time>2015-03-27T11:17:37Z</time>
      </trkpt>
      <trkpt lat="43.74899" lon="7.05501">
        <ele>968.67</ele>
        <time>2015-03-27T11:17:39Z</time>
      </trkpt>
      <trkpt lat="43.74905" lon="7.05496">
        <ele>969.15</ele>
        <time>2015-03-27T11:17:45Z</time>
      </trkpt>
      <trkpt lat="43.74914" lon="7.05481">
        <ele>969.15</ele>
        <time>2015-03-27T11:17:56Z</time>
      </trkpt>
      <trkpt lat="43.74913" lon="7.05468">
        <ele>969.15</ele>
        <time>2015-03-27T11:18:04Z</time>
      </trkpt>
      <trkpt lat="43.74913" lon="7.0546">
        <ele>969.63</ele>
        <time>2015-03-27T11:18:09Z</time>
      </trkpt>
      <trkpt lat="43.74904" lon="7.05448">
        <ele>969.63</ele>
        <time>2015-03-27T11:18:19Z</time>
      </trkpt>
      <trkpt lat="43.74896" lon="7.05436">
        <ele>970.59</ele>
        <time>2015-03-27T11:18:30Z</time>
      </trkpt>
      <trkpt lat="43.74886" lon="7.05425">
        <ele>971.07</ele>
        <time>2015-03-27T11:18:40Z</time>
      </trkpt>
      <trkpt lat="43.74883" lon="7.05423">
        <ele>971.07</ele>
        <time>2015-03-27T11:18:42Z</time>
      </trkpt>
      <trkpt lat="43.7488" lon="7.05421">
        <ele>971.07</ele>
        <time>2015-03-27T11:18:45Z</time>
      </trkpt>
      <trkpt lat="43.74869" lon="7.05418">
        <ele>971.55</ele>
        <time>2015-03-27T11:18:54Z</time>
      </trkpt>
      <trkpt lat="43.74865" lon="7.05416">
        <ele>971.55</ele>
        <time>2015-03-27T11:18:58Z</time>
      </trkpt>
      <trkpt lat="43.74854" lon="7.05413">
        <ele>972.99</ele>
        <time>2015-03-27T11:19:08Z</time>
      </trkpt>
      <trkpt lat="43.74842" lon="7.05413">
        <ele>974.91</ele>
        <time>2015-03-27T11:19:20Z</time>
      </trkpt>
      <trkpt lat="43.74836" lon="7.05414">
        <ele>976.36</ele>
        <time>2015-03-27T11:19:26Z</time>
      </trkpt>
      <trkpt lat="43.74826" lon="7.05407">
        <ele>977.32</ele>
        <time>2015-03-27T11:19:37Z</time>
      </trkpt>
      <trkpt lat="43.74819" lon="7.05409">
        <ele>977.32</ele>
        <time>2015-03-27T11:19:43Z</time>
      </trkpt>
      <trkpt lat="43.74809" lon="7.05405">
        <ele>977.8</ele>
        <time>2015-03-27T11:19:53Z</time>
      </trkpt>
      <trkpt lat="43.74796" lon="7.05398">
        <ele>978.28</ele>
        <time>2015-03-27T11:20:05Z</time>
      </trkpt>
      <trkpt lat="43.74786" lon="7.05388">
        <ele>979.24</ele>
        <time>2015-03-27T11:20:15Z</time>
      </trkpt>
      <trkpt lat="43.74784" lon="7.05385">
        <ele>979.24</ele>
        <time>2015-03-27T11:20:17Z</time>
      </trkpt>
      <trkpt lat="43.74783" lon="7.0538">
        <ele>979.72</ele>
        <time>2015-03-27T11:20:21Z</time>
      </trkpt>
      <trkpt lat="43.74782" lon="7.05376">
        <ele>979.72</ele>
        <time>2015-03-27T11:20:25Z</time>
      </trkpt>
      <trkpt lat="43.74782" lon="7.05366">
        <ele>981.16</ele>
        <time>2015-03-27T11:20:33Z</time>
      </trkpt>
      <trkpt lat="43.74781" lon="7.05364">
        <ele>981.16</ele>
        <time>2015-03-27T11:20:35Z</time>
      </trkpt>
      <trkpt lat="43.74779" lon="7.05354">
        <ele>982.6</ele>
        <time>2015-03-27T11:20:44Z</time>
      </trkpt>
      <trkpt lat="43.74779" lon="7.05353">
        <ele>983.09</ele>
        <time>2015-03-27T11:20:45Z</time>
      </trkpt>
      <trkpt lat="43.74778" lon="7.05345">
        <ele>983.57</ele>
        <time>2015-03-27T11:20:51Z</time>
      </trkpt>
      <trkpt lat="43.74776" lon="7.05336">
        <ele>985.49</ele>
        <time>2015-03-27T11:20:58Z</time>
      </trkpt>
      <trkpt lat="43.74775" lon="7.05327">
        <ele>986.45</ele>
        <time>2015-03-27T11:21:08Z</time>
      </trkpt>
      <trkpt lat="43.74774" lon="7.05318">
        <ele>988.37</ele>
        <time>2015-03-27T11:21:18Z</time>
      </trkpt>
      <trkpt lat="43.74772" lon="7.05307">
        <ele>989.81</ele>
        <time>2015-03-27T11:21:29Z</time>
      </trkpt>
      <trkpt lat="43.7477" lon="7.05294">
        <ele>991.26</ele>
        <time>2015-03-27T11:21:39Z</time>
      </trkpt>
      <trkpt lat="43.74771" lon="7.05282">
        <ele>991.74</ele>
        <time>2015-03-27T11:21:48Z</time>
      </trkpt>
      <trkpt lat="43.74771" lon="7.05274">
        <ele>991.74</ele>
        <time>2015-03-27T11:21:54Z</time>
      </trkpt>
      <trkpt lat="43.74772" lon="7.0527">
        <ele>991.74</ele>
        <time>2015-03-27T11:21:56Z</time>
      </trkpt>
      <trkpt lat="43.74772" lon="7.05255">
        <ele>991.74</ele>
        <time>2015-03-27T11:22:06Z</time>
      </trkpt>
      <trkpt lat="43.74769" lon="7.05242">
        <ele>993.18</ele>
        <time>2015-03-27T11:22:16Z</time>
      </trkpt>
      <trkpt lat="43.74768" lon="7.05239">
        <ele>993.18</ele>
        <time>2015-03-27T11:22:18Z</time>
      </trkpt>
      <trkpt lat="43.74762" lon="7.0523">
        <ele>993.66</ele>
        <time>2015-03-27T11:22:26Z</time>
      </trkpt>
      <trkpt lat="43.74758" lon="7.05217">
        <ele>995.58</ele>
        <time>2015-03-27T11:22:37Z</time>
      </trkpt>
      <trkpt lat="43.74755" lon="7.05207">
        <ele>996.54</ele>
        <time>2015-03-27T11:22:47Z</time>
      </trkpt>
      <trkpt lat="43.74753" lon="7.05193">
        <ele>997.51</ele>
        <time>2015-03-27T11:22:56Z</time>
      </trkpt>
      <trkpt lat="43.74753" lon="7.05179">
        <ele>997.99</ele>
        <time>2015-03-27T11:23:06Z</time>
      </trkpt>
      <trkpt lat="43.74752" lon="7.05165">
        <ele>999.91</ele>
        <time>2015-03-27T11:23:17Z</time>
      </trkpt>
      <trkpt lat="43.74745" lon="7.05156">
        <ele>1001.83</ele>
        <time>2015-03-27T11:23:28Z</time>
      </trkpt>
      <trkpt lat="43.74735" lon="7.05152">
        <ele>1004.23</ele>
        <time>2015-03-27T11:23:40Z</time>
      </trkpt>
      <trkpt lat="43.74725" lon="7.05147">
        <ele>1006.64</ele>
        <time>2015-03-27T11:23:53Z</time>
      </trkpt>
      <trkpt lat="43.74724" lon="7.05143">
        <ele>1007.6</ele>
        <time>2015-03-27T11:24:05Z</time>
      </trkpt>
      <trkpt lat="43.74722" lon="7.05137">
        <ele>1008.56</ele>
        <time>2015-03-27T11:24:17Z</time>
      </trkpt>
      <trkpt lat="43.74722" lon="7.05136">
        <ele>1008.56</ele>
        <time>2015-03-27T11:24:18Z</time>
      </trkpt>
      <trkpt lat="43.74714" lon="7.05123">
        <ele>1009.04</ele>
        <time>2015-03-27T11:24:26Z</time>
      </trkpt>
      <trkpt lat="43.74711" lon="7.0512">
        <ele>1009.52</ele>
        <time>2015-03-27T11:24:29Z</time>
      </trkpt>
      <trkpt lat="43.74701" lon="7.05097">
        <ele>1010.48</ele>
        <time>2015-03-27T11:24:41Z</time>
      </trkpt>
      <trkpt lat="43.74693" lon="7.05082">
        <ele>1010.96</ele>
        <time>2015-03-27T11:24:52Z</time>
      </trkpt>
      <trkpt lat="43.74688" lon="7.05075">
        <ele>1012.41</ele>
        <time>2015-03-27T11:25:00Z</time>
      </trkpt>
      <trkpt lat="43.74681" lon="7.05064">
        <ele>1012.41</ele>
        <time>2015-03-27T11:25:11Z</time>
      </trkpt>
      <trkpt lat="43.74677" lon="7.05059">
        <ele>1012.89</ele>
        <time>2015-03-27T11:25:16Z</time>
      </trkpt>
      <trkpt lat="43.7467" lon="7.05048">
        <ele>1013.85</ele>
        <time>2015-03-27T11:25:26Z</time>
      </trkpt>
      <trkpt lat="43.74661" lon="7.05037">
        <ele>1014.33</ele>
        <time>2015-03-27T11:25:36Z</time>
      </trkpt>
      <trkpt lat="43.7465" lon="7.05027">
        <ele>1015.77</ele>
        <time>2015-03-27T11:25:48Z</time>
      </trkpt>
      <trkpt lat="43.7464" lon="7.0502">
        <ele>1016.73</ele>
        <time>2015-03-27T11:25:58Z</time>
      </trkpt>
      <trkpt lat="43.74631" lon="7.05012">
        <ele>1018.65</ele>
        <time>2015-03-27T11:26:10Z</time>
      </trkpt>
      <trkpt lat="43.74627" lon="7.05009">
        <ele>1019.13</ele>
        <time>2015-03-27T11:26:15Z</time>
      </trkpt>
      <trkpt lat="43.74615" lon="7.05005">
        <ele>1020.58</ele>
        <time>2015-03-27T11:26:26Z</time>
      </trkpt>
      <trkpt lat="43.74603" lon="7.05001">
        <ele>1021.54</ele>
        <time>2015-03-27T11:26:37Z</time>
      </trkpt>
      <trkpt lat="43.74599" lon="7.05">
        <ele>1022.02</ele>
        <time>2015-03-27T11:26:42Z</time>
      </trkpt>
      <trkpt lat="43.74587" lon="7.05001">
        <ele>1022.5</ele>
        <time>2015-03-27T11:26:53Z</time>
      </trkpt>
      <trkpt lat="43.7458" lon="7.05001">
        <ele>1022.5</ele>
        <time>2015-03-27T11:26:59Z</time>
      </trkpt>
      <trkpt lat="43.74564" lon="7.05004">
        <ele>1022.98</ele>
        <time>2015-03-27T11:27:12Z</time>
      </trkpt>
      <trkpt lat="43.74551" lon="7.05003">
        <ele>1023.46</ele>
        <time>2015-03-27T11:27:24Z</time>
      </trkpt>
      <trkpt lat="43.74545" lon="7.05">
        <ele>1023.46</ele>
        <time>2015-03-27T11:27:29Z</time>
      </trkpt>
      <trkpt lat="43.7453" lon="7.04993">
        <ele>1023.46</ele>
        <time>2015-03-27T11:27:42Z</time>
      </trkpt>
      <trkpt lat="43.74513" lon="7.04994">
        <ele>1022.5</ele>
        <time>2015-03-27T11:27:55Z</time>
      </trkpt>
      <trkpt lat="43.7451" lon="7.04995">
        <ele>1022.02</ele>
        <time>2015-03-27T11:27:58Z</time>
      </trkpt>
      <trkpt lat="43.74496" lon="7.05001">
        <ele>1022.5</ele>
        <time>2015-03-27T11:28:10Z</time>
      </trkpt>
      <trkpt lat="43.74483" lon="7.05008">
        <ele>1021.54</ele>
        <time>2015-03-27T11:28:23Z</time>
      </trkpt>
      <trkpt lat="43.74483" lon="7.0501">
        <ele>1022.02</ele>
        <time>2015-03-27T11:28:24Z</time>
      </trkpt>
      <trkpt lat="43.74483" lon="7.05018">
        <ele>1021.06</ele>
        <time>2015-03-27T11:28:33Z</time>
      </trkpt>
      <trkpt lat="43.74483" lon="7.05019">
        <ele>1020.58</ele>
        <time>2015-03-27T11:28:34Z</time>
      </trkpt>
      <trkpt lat="43.74487" lon="7.0503">
        <ele>1020.1</ele>
        <time>2015-03-27T11:28:42Z</time>
      </trkpt>
      <trkpt lat="43.74487" lon="7.05037">
        <ele>1020.1</ele>
        <time>2015-03-27T11:28:53Z</time>
      </trkpt>
      <trkpt lat="43.74488" lon="7.05038">
        <ele>1019.62</ele>
        <time>2015-03-27T11:29:19Z</time>
      </trkpt>
      <trkpt lat="43.74489" lon="7.05037">
        <ele>1019.13</ele>
        <time>2015-03-27T11:29:29Z</time>
      </trkpt>
      <trkpt lat="43.74492" lon="7.05036">
        <ele>1020.1</ele>
        <time>2015-03-27T11:29:32Z</time>
      </trkpt>
      <trkpt lat="43.74504" lon="7.05043">
        <ele>1020.1</ele>
        <time>2015-03-27T11:29:43Z</time>
      </trkpt>
      <trkpt lat="43.74504" lon="7.05047">
        <ele>1018.65</ele>
        <time>2015-03-27T11:29:46Z</time>
      </trkpt>
      <trkpt lat="43.74503" lon="7.05059">
        <ele>1017.69</ele>
        <time>2015-03-27T11:29:53Z</time>
      </trkpt>
      <trkpt lat="43.74505" lon="7.05065">
        <ele>1018.17</ele>
        <time>2015-03-27T11:30:04Z</time>
      </trkpt>
      <trkpt lat="43.74505" lon="7.05065">
        <ele>1018.65</ele>
        <time>2015-03-27T11:30:11Z</time>
      </trkpt>
      <trkpt lat="43.74507" lon="7.05072">
        <ele>1018.17</ele>
        <time>2015-03-27T11:30:16Z</time>
      </trkpt>
      <trkpt lat="43.74513" lon="7.05075">
        <ele>1017.21</ele>
        <time>2015-03-27T11:30:28Z</time>
      </trkpt>
      <trkpt lat="43.74514" lon="7.05073">
        <ele>1018.65</ele>
        <time>2015-03-27T11:30:37Z</time>
      </trkpt>
      <trkpt lat="43.74511" lon="7.05071">
        <ele>1018.17</ele>
        <time>2015-03-27T11:30:48Z</time>
      </trkpt>
      <trkpt lat="43.74505" lon="7.05054">
        <ele>1019.13</ele>
        <time>2015-03-27T11:31:02Z</time>
      </trkpt>
      <trkpt lat="43.74502" lon="7.05039">
        <ele>1020.58</ele>
        <time>2015-03-27T11:31:13Z</time>
      </trkpt>
      <trkpt lat="43.745" lon="7.05038">
        <ele>1020.1</ele>
        <time>2015-03-27T11:31:15Z</time>
      </trkpt>
      <trkpt lat="43.74497" lon="7.05037">
        <ele>1020.58</ele>
        <time>2015-03-27T11:31:17Z</time>
      </trkpt>
      <trkpt lat="43.74487" lon="7.05034">
        <ele>1019.62</ele>
        <time>2015-03-27T11:31:25Z</time>
      </trkpt>
      <trkpt lat="43.7448" lon="7.05029">
        <ele>1020.58</ele>
        <time>2015-03-27T11:31:34Z</time>
      </trkpt>
      <trkpt lat="43.74474" lon="7.05021">
        <ele>1022.02</ele>
        <time>2015-03-27T11:31:45Z</time>
      </trkpt>
      <trkpt lat="43.74473" lon="7.05019">
        <ele>1021.54</ele>
        <time>2015-03-27T11:31:47Z</time>
      </trkpt>
      <trkpt lat="43.74469" lon="7.05">
        <ele>1022.02</ele>
        <time>2015-03-27T11:31:59Z</time>
      </trkpt>
      <trkpt lat="43.74463" lon="7.04991">
        <ele>1022.5</ele>
        <time>2015-03-27T11:32:06Z</time>
      </trkpt>
      <trkpt lat="43.74457" lon="7.04987">
        <ele>1022.98</ele>
        <time>2015-03-27T11:32:11Z</time>
      </trkpt>
      <trkpt lat="43.74451" lon="7.04977">
        <ele>1023.46</ele>
        <time>2015-03-27T11:32:20Z</time>
      </trkpt>
      <trkpt lat="43.74451" lon="7.04972">
        <ele>1023.46</ele>
        <time>2015-03-27T11:32:25Z</time>
      </trkpt>
      <trkpt lat="43.74449" lon="7.04968">
        <ele>1023.94</ele>
        <time>2015-03-27T11:32:28Z</time>
      </trkpt>
      <trkpt lat="43.74447" lon="7.04965">
        <ele>1023.94</ele>
        <time>2015-03-27T11:32:31Z</time>
      </trkpt>
      <trkpt lat="43.74442" lon="7.04965">
        <ele>1022.98</ele>
        <time>2015-03-27T11:32:35Z</time>
      </trkpt>
      <trkpt lat="43.74436" lon="7.04965">
        <ele>1022.98</ele>
        <time>2015-03-27T11:32:41Z</time>
      </trkpt>
      <trkpt lat="43.74432" lon="7.04965">
        <ele>1021.54</ele>
        <time>2015-03-27T11:32:44Z</time>
      </trkpt>
      <trkpt lat="43.74426" lon="7.04967">
        <ele>1020.58</ele>
        <time>2015-03-27T11:32:49Z</time>
      </trkpt>
      <trkpt lat="43.74423" lon="7.04969">
        <ele>1020.1</ele>
        <time>2015-03-27T11:32:52Z</time>
      </trkpt>
      <trkpt lat="43.7442" lon="7.04973">
        <ele>1018.65</ele>
        <time>2015-03-27T11:32:55Z</time>
      </trkpt>
      <trkpt lat="43.74418" lon="7.04973">
        <ele>1018.65</ele>
        <time>2015-03-27T11:32:57Z</time>
      </trkpt>
      <trkpt lat="43.74411" lon="7.04973">
        <ele>1017.69</ele>
        <time>2015-03-27T11:33:02Z</time>
      </trkpt>
      <trkpt lat="43.74405" lon="7.04978">
        <ele>1016.25</ele>
        <time>2015-03-27T11:33:08Z</time>
      </trkpt>
      <trkpt lat="43.74397" lon="7.0498">
        <ele>1015.77</ele>
        <time>2015-03-27T11:33:15Z</time>
      </trkpt>
      <trkpt lat="43.74381" lon="7.04982">
        <ele>1013.85</ele>
        <time>2015-03-27T11:33:26Z</time>
      </trkpt>
      <trkpt lat="43.74378" lon="7.04984">
        <ele>1013.37</ele>
        <time>2015-03-27T11:33:29Z</time>
      </trkpt>
      <trkpt lat="43.74377" lon="7.04986">
        <ele>1013.37</ele>
        <time>2015-03-27T11:33:31Z</time>
      </trkpt>
      <trkpt lat="43.74362" lon="7.04994">
        <ele>1013.37</ele>
        <time>2015-03-27T11:33:43Z</time>
      </trkpt>
      <trkpt lat="43.74361" lon="7.04995">
        <ele>1012.41</ele>
        <time>2015-03-27T11:33:45Z</time>
      </trkpt>
      <trkpt lat="43.74348" lon="7.05006">
        <ele>1012.89</ele>
        <time>2015-03-27T11:33:58Z</time>
      </trkpt>
      <trkpt lat="43.74346" lon="7.05006">
        <ele>1012.89</ele>
        <time>2015-03-27T11:34:00Z</time>
      </trkpt>
      <trkpt lat="43.7434" lon="7.05007">
        <ele>1013.37</ele>
        <time>2015-03-27T11:34:05Z</time>
      </trkpt>
      <trkpt lat="43.74331" lon="7.05008">
        <ele>1012.89</ele>
        <time>2015-03-27T11:34:13Z</time>
      </trkpt>
      <trkpt lat="43.7432" lon="7.05008">
        <ele>1012.89</ele>
        <time>2015-03-27T11:34:22Z</time>
      </trkpt>
      <trkpt lat="43.74306" lon="7.05001">
        <ele>1012.41</ele>
        <time>2015-03-27T11:34:34Z</time>
      </trkpt>
      <trkpt lat="43.743" lon="7.05002">
        <ele>1012.89</ele>
        <time>2015-03-27T11:34:39Z</time>
      </trkpt>
      <trkpt lat="43.74297" lon="7.05001">
        <ele>1013.37</ele>
        <time>2015-03-27T11:34:42Z</time>
      </trkpt>
      <trkpt lat="43.74293" lon="7.05002">
        <ele>1013.85</ele>
        <time>2015-03-27T11:34:45Z</time>
      </trkpt>
      <trkpt lat="43.74286" lon="7.05012">
        <ele>1013.85</ele>
        <time>2015-03-27T11:34:55Z</time>
      </trkpt>
      <trkpt lat="43.74282" lon="7.05027">
        <ele>1015.29</ele>
        <time>2015-03-27T11:35:06Z</time>
      </trkpt>
      <trkpt lat="43.74274" lon="7.0504">
        <ele>1016.25</ele>
        <time>2015-03-27T11:35:18Z</time>
      </trkpt>
      <trkpt lat="43.74274" lon="7.05041">
        <ele>1016.73</ele>
        <time>2015-03-27T11:35:34Z</time>
      </trkpt>
      <trkpt lat="43.7427" lon="7.05044">
        <ele>1016.25</ele>
        <time>2015-03-27T11:35:39Z</time>
      </trkpt>
      <trkpt lat="43.74262" lon="7.05051">
        <ele>1017.69</ele>
        <time>2015-03-27T11:35:47Z</time>
      </trkpt>
      <trkpt lat="43.74254" lon="7.05058">
        <ele>1019.13</ele>
        <time>2015-03-27T11:35:56Z</time>
      </trkpt>
      <trkpt lat="43.74244" lon="7.05069">
        <ele>1019.62</ele>
        <time>2015-03-27T11:36:07Z</time>
      </trkpt>
      <trkpt lat="43.7423" lon="7.05076">
        <ele>1020.1</ele>
        <time>2015-03-27T11:36:19Z</time>
      </trkpt>
      <trkpt lat="43.74218" lon="7.05082">
        <ele>1022.02</ele>
        <time>2015-03-27T11:36:31Z</time>
      </trkpt>
      <trkpt lat="43.74207" lon="7.05087">
        <ele>1022.98</ele>
        <time>2015-03-27T11:36:42Z</time>
      </trkpt>
      <trkpt lat="43.74197" lon="7.05094">
        <ele>1023.94</ele>
        <time>2015-03-27T11:36:52Z</time>
      </trkpt>
      <trkpt lat="43.74192" lon="7.05095">
        <ele>1024.9</ele>
        <time>2015-03-27T11:36:57Z</time>
      </trkpt>
      <trkpt lat="43.74181" lon="7.05099">
        <ele>1024.9</ele>
        <time>2015-03-27T11:37:07Z</time>
      </trkpt>
      <trkpt lat="43.74172" lon="7.05105">
        <ele>1025.38</ele>
        <time>2015-03-27T11:37:18Z</time>
      </trkpt>
      <trkpt lat="43.74167" lon="7.05105">
        <ele>1025.38</ele>
        <time>2015-03-27T11:37:22Z</time>
      </trkpt>
      <trkpt lat="43.74154" lon="7.05105">
        <ele>1025.86</ele>
        <time>2015-03-27T11:37:35Z</time>
      </trkpt>
      <trkpt lat="43.74149" lon="7.05104">
        <ele>1026.34</ele>
        <time>2015-03-27T11:37:41Z</time>
      </trkpt>
      <trkpt lat="43.74139" lon="7.05104">
        <ele>1026.83</ele>
        <time>2015-03-27T11:37:51Z</time>
      </trkpt>
      <trkpt lat="43.74138" lon="7.05104">
        <ele>1026.83</ele>
        <time>2015-03-27T11:37:52Z</time>
      </trkpt>
      <trkpt lat="43.74132" lon="7.05106">
        <ele>1026.83</ele>
        <time>2015-03-27T11:37:57Z</time>
      </trkpt>
      <trkpt lat="43.74117" lon="7.05116">
        <ele>1025.86</ele>
        <time>2015-03-27T11:38:10Z</time>
      </trkpt>
      <trkpt lat="43.74108" lon="7.05125">
        <ele>1026.83</ele>
        <time>2015-03-27T11:38:21Z</time>
      </trkpt>
      <trkpt lat="43.74096" lon="7.05128">
        <ele>1028.27</ele>
        <time>2015-03-27T11:38:33Z</time>
      </trkpt>
      <trkpt lat="43.74095" lon="7.05128">
        <ele>1028.27</ele>
        <time>2015-03-27T11:38:34Z</time>
      </trkpt>
      <trkpt lat="43.7409" lon="7.05126">
        <ele>1027.31</ele>
        <time>2015-03-27T11:38:39Z</time>
      </trkpt>
      <trkpt lat="43.74078" lon="7.05127">
        <ele>1026.83</ele>
        <time>2015-03-27T11:38:50Z</time>
      </trkpt>
      <trkpt lat="43.74067" lon="7.05128">
        <ele>1027.31</ele>
        <time>2015-03-27T11:38:59Z</time>
      </trkpt>
      <trkpt lat="43.74065" lon="7.05126">
        <ele>1027.31</ele>
        <time>2015-03-27T11:39:03Z</time>
      </trkpt>
      <trkpt lat="43.74062" lon="7.05124">
        <ele>1027.31</ele>
        <time>2015-03-27T11:39:06Z</time>
      </trkpt>
      <trkpt lat="43.74058" lon="7.05123">
        <ele>1027.31</ele>
        <time>2015-03-27T11:39:09Z</time>
      </trkpt>
      <trkpt lat="43.74051" lon="7.05122">
        <ele>1027.31</ele>
        <time>2015-03-27T11:39:14Z</time>
      </trkpt>
      <trkpt lat="43.74038" lon="7.05117">
        <ele>1026.83</ele>
        <time>2015-03-27T11:39:25Z</time>
      </trkpt>
      <trkpt lat="43.74025" lon="7.05114">
        <ele>1025.86</ele>
        <time>2015-03-27T11:39:36Z</time>
      </trkpt>
      <trkpt lat="43.74014" lon="7.05115">
        <ele>1024.42</ele>
        <time>2015-03-27T11:39:47Z</time>
      </trkpt>
      <trkpt lat="43.74002" lon="7.05119">
        <ele>1023.46</ele>
        <time>2015-03-27T11:39:59Z</time>
      </trkpt>
      <trkpt lat="43.74001" lon="7.0512">
        <ele>1023.94</ele>
        <time>2015-03-27T11:40:14Z</time>
      </trkpt>
      <trkpt lat="43.74001" lon="7.0512">
        <ele>1022.98</ele>
        <time>2015-03-27T11:40:22Z</time>
      </trkpt>
      <trkpt lat="43.73996" lon="7.05125">
        <ele>1022.98</ele>
        <time>2015-03-27T11:40:28Z</time>
      </trkpt>
      <trkpt lat="43.73988" lon="7.05139">
        <ele>1022.5</ele>
        <time>2015-03-27T11:40:39Z</time>
      </trkpt>
      <trkpt lat="43.73978" lon="7.05153">
        <ele>1022.98</ele>
        <time>2015-03-27T11:40:51Z</time>
      </trkpt>
      <trkpt lat="43.73971" lon="7.05167">
        <ele>1024.42</ele>
        <time>2015-03-27T11:41:03Z</time>
      </trkpt>
      <trkpt lat="43.73969" lon="7.05172">
        <ele>1024.42</ele>
        <time>2015-03-27T11:41:13Z</time>
      </trkpt>
      <trkpt lat="43.73966" lon="7.05179">
        <ele>1024.42</ele>
        <time>2015-03-27T11:41:24Z</time>
      </trkpt>
      <trkpt lat="43.73964" lon="7.05183">
        <ele>1024.9</ele>
        <time>2015-03-27T11:41:28Z</time>
      </trkpt>
      <trkpt lat="43.73959" lon="7.05197">
        <ele>1025.38</ele>
        <time>2015-03-27T11:41:40Z</time>
      </trkpt>
      <trkpt lat="43.73958" lon="7.05202">
        <ele>1024.9</ele>
        <time>2015-03-27T11:41:44Z</time>
      </trkpt>
      <trkpt lat="43.73953" lon="7.0522">
        <ele>1025.38</ele>
        <time>2015-03-27T11:41:56Z</time>
      </trkpt>
      <trkpt lat="43.73951" lon="7.05236">
        <ele>1025.86</ele>
        <time>2015-03-27T11:42:05Z</time>
      </trkpt>
      <trkpt lat="43.73949" lon="7.05242">
        <ele>1024.9</ele>
        <time>2015-03-27T11:42:09Z</time>
      </trkpt>
      <trkpt lat="43.73946" lon="7.05249">
        <ele>1022.98</ele>
        <time>2015-03-27T11:42:15Z</time>
      </trkpt>
      <trkpt lat="43.73945" lon="7.05254">
        <ele>1022.02</ele>
        <time>2015-03-27T11:42:23Z</time>
      </trkpt>
      <trkpt lat="43.73945" lon="7.05257">
        <ele>1021.54</ele>
        <time>2015-03-27T11:42:40Z</time>
      </trkpt>
      <trkpt lat="43.73943" lon="7.05266">
        <ele>1019.62</ele>
        <time>2015-03-27T11:42:50Z</time>
      </trkpt>
      <trkpt lat="43.73939" lon="7.05277">
        <ele>1017.21</ele>
        <time>2015-03-27T11:43:00Z</time>
      </trkpt>
      <trkpt lat="43.73938" lon="7.0528">
        <ele>1017.21</ele>
        <time>2015-03-27T11:43:03Z</time>
      </trkpt>
      <trkpt lat="43.7393" lon="7.05293">
        <ele>1014.81</ele>
        <time>2015-03-27T11:43:13Z</time>
      </trkpt>
      <trkpt lat="43.7393" lon="7.05294">
        <ele>1013.85</ele>
        <time>2015-03-27T11:43:14Z</time>
      </trkpt>
      <trkpt lat="43.73927" lon="7.05301">
        <ele>1013.85</ele>
        <time>2015-03-27T11:43:18Z</time>
      </trkpt>
      <trkpt lat="43.73921" lon="7.05318">
        <ele>1010</ele>
        <time>2015-03-27T11:43:31Z</time>
      </trkpt>
      <trkpt lat="43.73919" lon="7.0532">
        <ele>1010</ele>
        <time>2015-03-27T11:43:33Z</time>
      </trkpt>
      <trkpt lat="43.73914" lon="7.05328">
        <ele>1008.56</ele>
        <time>2015-03-27T11:43:39Z</time>
      </trkpt>
      <trkpt lat="43.73914" lon="7.05331">
        <ele>1007.6</ele>
        <time>2015-03-27T11:43:41Z</time>
      </trkpt>
      <trkpt lat="43.73908" lon="7.0535">
        <ele>1005.2</ele>
        <time>2015-03-27T11:43:53Z</time>
      </trkpt>
      <trkpt lat="43.73901" lon="7.05359">
        <ele>1003.75</ele>
        <time>2015-03-27T11:44:01Z</time>
      </trkpt>
      <trkpt lat="43.73896" lon="7.05379">
        <ele>1000.39</ele>
        <time>2015-03-27T11:44:14Z</time>
      </trkpt>
      <trkpt lat="43.73894" lon="7.05381">
        <ele>999.91</ele>
        <time>2015-03-27T11:44:16Z</time>
      </trkpt>
      <trkpt lat="43.73889" lon="7.05388">
        <ele>998.47</ele>
        <time>2015-03-27T11:44:23Z</time>
      </trkpt>
      <trkpt lat="43.73886" lon="7.05395">
        <ele>997.02</ele>
        <time>2015-03-27T11:44:28Z</time>
      </trkpt>
      <trkpt lat="43.73884" lon="7.05405">
        <ele>995.58</ele>
        <time>2015-03-27T11:44:33Z</time>
      </trkpt>
      <trkpt lat="43.73882" lon="7.05409">
        <ele>994.62</ele>
        <time>2015-03-27T11:44:36Z</time>
      </trkpt>
      <trkpt lat="43.73878" lon="7.05414">
        <ele>992.7</ele>
        <time>2015-03-27T11:44:41Z</time>
      </trkpt>
      <trkpt lat="43.73874" lon="7.05422">
        <ele>992.22</ele>
        <time>2015-03-27T11:44:47Z</time>
      </trkpt>
      <trkpt lat="43.73868" lon="7.05441">
        <ele>990.78</ele>
        <time>2015-03-27T11:45:00Z</time>
      </trkpt>
      <trkpt lat="43.73867" lon="7.05447">
        <ele>990.3</ele>
        <time>2015-03-27T11:45:03Z</time>
      </trkpt>
      <trkpt lat="43.73862" lon="7.05464">
        <ele>988.37</ele>
        <time>2015-03-27T11:45:14Z</time>
      </trkpt>
      <trkpt lat="43.73856" lon="7.05478">
        <ele>986.93</ele>
        <time>2015-03-27T11:45:24Z</time>
      </trkpt>
      <trkpt lat="43.73855" lon="7.05482">
        <ele>986.93</ele>
        <time>2015-03-27T11:45:27Z</time>
      </trkpt>
      <trkpt lat="43.73852" lon="7.05494">
        <ele>985.49</ele>
        <time>2015-03-27T11:45:35Z</time>
      </trkpt>
      <trkpt lat="43.73852" lon="7.05499">
        <ele>985.49</ele>
        <time>2015-03-27T11:45:38Z</time>
      </trkpt>
      <trkpt lat="43.73852" lon="7.05516">
        <ele>985.01</ele>
        <time>2015-03-27T11:45:47Z</time>
      </trkpt>
      <trkpt lat="43.73851" lon="7.05524">
        <ele>985.01</ele>
        <time>2015-03-27T11:45:52Z</time>
      </trkpt>
      <trkpt lat="43.73847" lon="7.05532">
        <ele>984.53</ele>
        <time>2015-03-27T11:46:00Z</time>
      </trkpt>
      <trkpt lat="43.7384" lon="7.05552">
        <ele>982.6</ele>
        <time>2015-03-27T11:46:13Z</time>
      </trkpt>
      <trkpt lat="43.7384" lon="7.05553">
        <ele>982.12</ele>
        <time>2015-03-27T11:46:17Z</time>
      </trkpt>
      <trkpt lat="43.7384" lon="7.05568">
        <ele>982.12</ele>
        <time>2015-03-27T11:46:27Z</time>
      </trkpt>
      <trkpt lat="43.73839" lon="7.05579">
        <ele>983.09</ele>
        <time>2015-03-27T11:46:35Z</time>
      </trkpt>
      <trkpt lat="43.73832" lon="7.0559">
        <ele>983.09</ele>
        <time>2015-03-27T11:46:47Z</time>
      </trkpt>
      <trkpt lat="43.73832" lon="7.05591">
        <ele>983.09</ele>
        <time>2015-03-27T11:46:50Z</time>
      </trkpt>
      <trkpt lat="43.73831" lon="7.05599">
        <ele>983.57</ele>
        <time>2015-03-27T11:46:56Z</time>
      </trkpt>
      <trkpt lat="43.7383" lon="7.05605">
        <ele>984.05</ele>
        <time>2015-03-27T11:47:01Z</time>
      </trkpt>
      <trkpt lat="43.73832" lon="7.05615">
        <ele>984.53</ele>
        <time>2015-03-27T11:47:09Z</time>
      </trkpt>
      <trkpt lat="43.7383" lon="7.05627">
        <ele>984.05</ele>
        <time>2015-03-27T11:47:17Z</time>
      </trkpt>
      <trkpt lat="43.73829" lon="7.0564">
        <ele>985.01</ele>
        <time>2015-03-27T11:47:25Z</time>
      </trkpt>
      <trkpt lat="43.73829" lon="7.05653">
        <ele>984.53</ele>
        <time>2015-03-27T11:47:33Z</time>
      </trkpt>
      <trkpt lat="43.73829" lon="7.05658">
        <ele>984.53</ele>
        <time>2015-03-27T11:47:36Z</time>
      </trkpt>
      <trkpt lat="43.73827" lon="7.05673">
        <ele>985.49</ele>
        <time>2015-03-27T11:47:45Z</time>
      </trkpt>
      <trkpt lat="43.73827" lon="7.05676">
        <ele>984.53</ele>
        <time>2015-03-27T11:47:58Z</time>
      </trkpt>
      <trkpt lat="43.73827" lon="7.05677">
        <ele>984.05</ele>
        <time>2015-03-27T11:48:00Z</time>
      </trkpt>
      <trkpt lat="43.73825" lon="7.05681">
        <ele>984.05</ele>
        <time>2015-03-27T11:48:03Z</time>
      </trkpt>
      <trkpt lat="43.73821" lon="7.05699">
        <ele>983.57</ele>
        <time>2015-03-27T11:48:15Z</time>
      </trkpt>
      <trkpt lat="43.73816" lon="7.05716">
        <ele>983.57</ele>
        <time>2015-03-27T11:48:25Z</time>
      </trkpt>
      <trkpt lat="43.73812" lon="7.05734">
        <ele>983.09</ele>
        <time>2015-03-27T11:48:36Z</time>
      </trkpt>
      <trkpt lat="43.73805" lon="7.05748">
        <ele>982.6</ele>
        <time>2015-03-27T11:48:46Z</time>
      </trkpt>
      <trkpt lat="43.738" lon="7.05764">
        <ele>982.6</ele>
        <time>2015-03-27T11:48:56Z</time>
      </trkpt>
      <trkpt lat="43.73793" lon="7.05779">
        <ele>983.09</ele>
        <time>2015-03-27T11:49:06Z</time>
      </trkpt>
      <trkpt lat="43.73787" lon="7.05799">
        <ele>982.6</ele>
        <time>2015-03-27T11:49:19Z</time>
      </trkpt>
      <trkpt lat="43.73787" lon="7.05805">
        <ele>983.57</ele>
        <time>2015-03-27T11:49:23Z</time>
      </trkpt>
      <trkpt lat="43.73784" lon="7.05821">
        <ele>984.53</ele>
        <time>2015-03-27T11:49:33Z</time>
      </trkpt>
      <trkpt lat="43.73783" lon="7.05837">
        <ele>985.01</ele>
        <time>2015-03-27T11:49:43Z</time>
      </trkpt>
      <trkpt lat="43.73781" lon="7.05851">
        <ele>986.93</ele>
        <time>2015-03-27T11:49:54Z</time>
      </trkpt>
      <trkpt lat="43.73776" lon="7.05859">
        <ele>987.41</ele>
        <time>2015-03-27T11:50:00Z</time>
      </trkpt>
      <trkpt lat="43.73774" lon="7.05868">
        <ele>988.37</ele>
        <time>2015-03-27T11:50:06Z</time>
      </trkpt>
      <trkpt lat="43.73773" lon="7.05871">
        <ele>989.81</ele>
        <time>2015-03-27T11:50:09Z</time>
      </trkpt>
      <trkpt lat="43.73772" lon="7.05874">
        <ele>988.85</ele>
        <time>2015-03-27T11:50:11Z</time>
      </trkpt>
      <trkpt lat="43.73769" lon="7.05887">
        <ele>990.78</ele>
        <time>2015-03-27T11:50:23Z</time>
      </trkpt>
      <trkpt lat="43.73764" lon="7.059">
        <ele>991.74</ele>
        <time>2015-03-27T11:50:34Z</time>
      </trkpt>
      <trkpt lat="43.73762" lon="7.05904">
        <ele>993.18</ele>
        <time>2015-03-27T11:50:37Z</time>
      </trkpt>
      <trkpt lat="43.73762" lon="7.05908">
        <ele>994.62</ele>
        <time>2015-03-27T11:50:41Z</time>
      </trkpt>
      <trkpt lat="43.73759" lon="7.05916">
        <ele>994.14</ele>
        <time>2015-03-27T11:50:49Z</time>
      </trkpt>
      <trkpt lat="43.73751" lon="7.05931">
        <ele>994.62</ele>
        <time>2015-03-27T11:51:01Z</time>
      </trkpt>
      <trkpt lat="43.7375" lon="7.05933">
        <ele>996.54</ele>
        <time>2015-03-27T11:51:03Z</time>
      </trkpt>
      <trkpt lat="43.73748" lon="7.05938">
        <ele>994.62</ele>
        <time>2015-03-27T11:51:07Z</time>
      </trkpt>
      <trkpt lat="43.73743" lon="7.05949">
        <ele>994.14</ele>
        <time>2015-03-27T11:51:16Z</time>
      </trkpt>
      <trkpt lat="43.73743" lon="7.05955">
        <ele>994.14</ele>
        <time>2015-03-27T11:51:22Z</time>
      </trkpt>
      <trkpt lat="43.7374" lon="7.0597">
        <ele>995.1</ele>
        <time>2015-03-27T11:51:32Z</time>
      </trkpt>
      <trkpt lat="43.73739" lon="7.05975">
        <ele>995.58</ele>
        <time>2015-03-27T11:51:36Z</time>
      </trkpt>
      <trkpt lat="43.73735" lon="7.0599">
        <ele>995.58</ele>
        <time>2015-03-27T11:51:45Z</time>
      </trkpt>
      <trkpt lat="43.73731" lon="7.06002">
        <ele>996.06</ele>
        <time>2015-03-27T11:51:56Z</time>
      </trkpt>
      <trkpt lat="43.73731" lon="7.06004">
        <ele>996.54</ele>
        <time>2015-03-27T11:51:58Z</time>
      </trkpt>
      <trkpt lat="43.73733" lon="7.06013">
        <ele>997.02</ele>
        <time>2015-03-27T11:52:05Z</time>
      </trkpt>
      <trkpt lat="43.73734" lon="7.06028">
        <ele>997.51</ele>
        <time>2015-03-27T11:52:15Z</time>
      </trkpt>
      <trkpt lat="43.73733" lon="7.06034">
        <ele>997.99</ele>
        <time>2015-03-27T11:52:19Z</time>
      </trkpt>
      <trkpt lat="43.73734" lon="7.06049">
        <ele>998.47</ele>
        <time>2015-03-27T11:52:29Z</time>
      </trkpt>
      <trkpt lat="43.73734" lon="7.06053">
        <ele>997.99</ele>
        <time>2015-03-27T11:52:32Z</time>
      </trkpt>
      <trkpt lat="43.73736" lon="7.06061">
        <ele>997.99</ele>
        <time>2015-03-27T11:52:37Z</time>
      </trkpt>
      <trkpt lat="43.73737" lon="7.06065">
        <ele>998.47</ele>
        <time>2015-03-27T11:52:39Z</time>
      </trkpt>
      <trkpt lat="43.7374" lon="7.06073">
        <ele>998.47</ele>
        <time>2015-03-27T11:52:47Z</time>
      </trkpt>
      <trkpt lat="43.73741" lon="7.06076">
        <ele>998.95</ele>
        <time>2015-03-27T11:52:49Z</time>
      </trkpt>
      <trkpt lat="43.73742" lon="7.0608">
        <ele>998.95</ele>
        <time>2015-03-27T11:52:51Z</time>
      </trkpt>
      <trkpt lat="43.73744" lon="7.06087">
        <ele>999.43</ele>
        <time>2015-03-27T11:52:55Z</time>
      </trkpt>
      <trkpt lat="43.73746" lon="7.06093">
        <ele>998.95</ele>
        <time>2015-03-27T11:53:00Z</time>
      </trkpt>
      <trkpt lat="43.73749" lon="7.06108">
        <ele>999.91</ele>
        <time>2015-03-27T11:53:12Z</time>
      </trkpt>
      <trkpt lat="43.73752" lon="7.06113">
        <ele>999.91</ele>
        <time>2015-03-27T11:53:16Z</time>
      </trkpt>
      <trkpt lat="43.73755" lon="7.06131">
        <ele>1000.39</ele>
        <time>2015-03-27T11:53:27Z</time>
      </trkpt>
      <trkpt lat="43.73757" lon="7.06139">
        <ele>1000.39</ele>
        <time>2015-03-27T11:53:32Z</time>
      </trkpt>
      <trkpt lat="43.73759" lon="7.0615">
        <ele>1001.35</ele>
        <time>2015-03-27T11:53:40Z</time>
      </trkpt>
      <trkpt lat="43.73763" lon="7.06157">
        <ele>1001.83</ele>
        <time>2015-03-27T11:53:46Z</time>
      </trkpt>
      <trkpt lat="43.73765" lon="7.06171">
        <ele>1003.27</ele>
        <time>2015-03-27T11:53:57Z</time>
      </trkpt>
      <trkpt lat="43.73768" lon="7.0618">
        <ele>1003.75</ele>
        <time>2015-03-27T11:54:04Z</time>
      </trkpt>
      <trkpt lat="43.73772" lon="7.06191">
        <ele>1005.2</ele>
        <time>2015-03-27T11:54:15Z</time>
      </trkpt>
      <trkpt lat="43.73771" lon="7.06205">
        <ele>1006.16</ele>
        <time>2015-03-27T11:54:26Z</time>
      </trkpt>
      <trkpt lat="43.73772" lon="7.06206">
        <ele>1006.64</ele>
        <time>2015-03-27T11:54:27Z</time>
      </trkpt>
      <trkpt lat="43.73774" lon="7.06219">
        <ele>1007.12</ele>
        <time>2015-03-27T11:54:35Z</time>
      </trkpt>
      <trkpt lat="43.73774" lon="7.06224">
        <ele>1007.6</ele>
        <time>2015-03-27T11:54:38Z</time>
      </trkpt>
      <trkpt lat="43.73778" lon="7.06232">
        <ele>1009.04</ele>
        <time>2015-03-27T11:54:45Z</time>
      </trkpt>
      <trkpt lat="43.7378" lon="7.0624">
        <ele>1009.04</ele>
        <time>2015-03-27T11:54:51Z</time>
      </trkpt>
      <trkpt lat="43.73784" lon="7.06253">
        <ele>1010.48</ele>
        <time>2015-03-27T11:55:01Z</time>
      </trkpt>
      <trkpt lat="43.73784" lon="7.06254">
        <ele>1010.48</ele>
        <time>2015-03-27T11:55:02Z</time>
      </trkpt>
      <trkpt lat="43.73787" lon="7.0627">
        <ele>1012.41</ele>
        <time>2015-03-27T11:55:13Z</time>
      </trkpt>
      <trkpt lat="43.73791" lon="7.06283">
        <ele>1013.85</ele>
        <time>2015-03-27T11:55:24Z</time>
      </trkpt>
      <trkpt lat="43.73792" lon="7.06286">
        <ele>1014.81</ele>
        <time>2015-03-27T11:55:27Z</time>
      </trkpt>
      <trkpt lat="43.73799" lon="7.063">
        <ele>1016.73</ele>
        <time>2015-03-27T11:55:39Z</time>
      </trkpt>
      <trkpt lat="43.738" lon="7.06306">
        <ele>1018.17</ele>
        <time>2015-03-27T11:55:48Z</time>
      </trkpt>
      <trkpt lat="43.738" lon="7.06312">
        <ele>1017.69</ele>
        <time>2015-03-27T11:55:56Z</time>
      </trkpt>
      <trkpt lat="43.73801" lon="7.06314">
        <ele>1018.17</ele>
        <time>2015-03-27T11:55:58Z</time>
      </trkpt>
      <trkpt lat="43.73809" lon="7.06329">
        <ele>1016.73</ele>
        <time>2015-03-27T11:56:11Z</time>
      </trkpt>
      <trkpt lat="43.73813" lon="7.06342">
        <ele>1016.25</ele>
        <time>2015-03-27T11:56:22Z</time>
      </trkpt>
      <trkpt lat="43.73813" lon="7.06343">
        <ele>1016.25</ele>
        <time>2015-03-27T11:56:23Z</time>
      </trkpt>
      <trkpt lat="43.73814" lon="7.06346">
        <ele>1016.25</ele>
        <time>2015-03-27T11:56:25Z</time>
      </trkpt>
      <trkpt lat="43.73816" lon="7.06357">
        <ele>1015.29</ele>
        <time>2015-03-27T11:56:35Z</time>
      </trkpt>
      <trkpt lat="43.73821" lon="7.06375">
        <ele>1015.29</ele>
        <time>2015-03-27T11:56:47Z</time>
      </trkpt>
      <trkpt lat="43.73827" lon="7.06389">
        <ele>1015.77</ele>
        <time>2015-03-27T11:56:59Z</time>
      </trkpt>
      <trkpt lat="43.7383" lon="7.06393">
        <ele>1016.25</ele>
        <time>2015-03-27T11:57:06Z</time>
      </trkpt>
      <trkpt lat="43.73836" lon="7.06399">
        <ele>1016.25</ele>
        <time>2015-03-27T11:57:13Z</time>
      </trkpt>
      <trkpt lat="43.73844" lon="7.06403">
        <ele>1016.73</ele>
        <time>2015-03-27T11:57:24Z</time>
      </trkpt>
      <trkpt lat="43.73847" lon="7.06406">
        <ele>1016.25</ele>
        <time>2015-03-27T11:57:39Z</time>
      </trkpt>
      <trkpt lat="43.73844" lon="7.06409">
        <ele>1015.77</ele>
        <time>2015-03-27T11:57:44Z</time>
      </trkpt>
      <trkpt lat="43.73837" lon="7.06414">
        <ele>1015.77</ele>
        <time>2015-03-27T11:57:57Z</time>
      </trkpt>
      <trkpt lat="43.73835" lon="7.06413">
        <ele>1015.29</ele>
        <time>2015-03-27T11:58:11Z</time>
      </trkpt>
      <trkpt lat="43.73835" lon="7.06414">
        <ele>1015.29</ele>
        <time>2015-03-27T11:58:35Z</time>
      </trkpt>
      <trkpt lat="43.73835" lon="7.06414">
        <ele>1015.29</ele>
        <time>2015-03-27T11:59:00Z</time>
      </trkpt>
      <trkpt lat="43.73836" lon="7.06413">
        <ele>1016.25</ele>
        <time>2015-03-27T11:59:19Z</time>
      </trkpt>
      <trkpt lat="43.73838" lon="7.06412">
        <ele>1016.25</ele>
        <time>2015-03-27T11:59:29Z</time>
      </trkpt>
      <trkpt lat="43.73839" lon="7.06412">
        <ele>1015.29</ele>
        <time>2015-03-27T11:59:45Z</time>
      </trkpt>
      <trkpt lat="43.73843" lon="7.0641">
        <ele>1016.25</ele>
        <time>2015-03-27T11:59:56Z</time>
      </trkpt>
      <trkpt lat="43.73843" lon="7.06412">
        <ele>1015.77</ele>
        <time>2015-03-27T12:00:06Z</time>
      </trkpt>
      <trkpt lat="43.73843" lon="7.06412">
        <ele>1016.25</ele>
        <time>2015-03-27T12:00:21Z</time>
      </trkpt>
      <trkpt lat="43.73843" lon="7.06412">
        <ele>1015.77</ele>
        <time>2015-03-27T12:00:36Z</time>
      </trkpt>
      <trkpt lat="43.73843" lon="7.06413">
        <ele>1016.25</ele>
        <time>2015-03-27T12:00:54Z</time>
      </trkpt>
      <trkpt lat="43.73843" lon="7.06413">
        <ele>1015.77</ele>
        <time>2015-03-27T12:01:14Z</time>
      </trkpt>
      <trkpt lat="43.73842" lon="7.06414">
        <ele>1014.81</ele>
        <time>2015-03-27T12:01:18Z</time>
      </trkpt>
      <trkpt lat="43.73839" lon="7.06415">
        <ele>1014.81</ele>
        <time>2015-03-27T12:01:21Z</time>
      </trkpt>
      <trkpt lat="43.73836" lon="7.06424">
        <ele>1013.85</ele>
        <time>2015-03-27T12:01:31Z</time>
      </trkpt>
      <trkpt lat="43.73836" lon="7.06424">
        <ele>1012.41</ele>
        <time>2015-03-27T12:01:33Z</time>
      </trkpt>
      <trkpt lat="43.73836" lon="7.06424">
        <ele>1016.73</ele>
        <time>2015-03-27T12:01:34Z</time>
      </trkpt>
      <trkpt lat="43.73836" lon="7.06424">
        <ele>1014.33</ele>
        <time>2015-03-27T12:01:35Z</time>
      </trkpt>
      <trkpt lat="43.73835" lon="7.06424">
        <ele>1013.37</ele>
        <time>2015-03-27T12:01:57Z</time>
      </trkpt>
      <trkpt lat="43.73835" lon="7.06424">
        <ele>1014.33</ele>
        <time>2015-03-27T12:02:11Z</time>
      </trkpt>
      <trkpt lat="43.73836" lon="7.06423">
        <ele>1014.81</ele>
        <time>2015-03-27T12:02:20Z</time>
      </trkpt>
      <trkpt lat="43.73839" lon="7.06416">
        <ele>1016.25</ele>
        <time>2015-03-27T12:02:30Z</time>
      </trkpt>
      <trkpt lat="43.73841" lon="7.06414">
        <ele>1015.29</ele>
        <time>2015-03-27T12:02:41Z</time>
      </trkpt>
      <trkpt lat="43.73842" lon="7.06413">
        <ele>1016.25</ele>
        <time>2015-03-27T12:02:57Z</time>
      </trkpt>
      <trkpt lat="43.73842" lon="7.06413">
        <ele>1015.77</ele>
        <time>2015-03-27T12:03:19Z</time>
      </trkpt>
      <trkpt lat="43.73842" lon="7.06413">
        <ele>1015.77</ele>
        <time>2015-03-27T12:03:42Z</time>
      </trkpt>
      <trkpt lat="43.73842" lon="7.06413">
        <ele>1016.25</ele>
        <time>2015-03-27T12:04:08Z</time>
      </trkpt>
      <trkpt lat="43.73842" lon="7.06412">
        <ele>1016.73</ele>
        <time>2015-03-27T12:04:37Z</time>
      </trkpt>
      <trkpt lat="43.73842" lon="7.06412">
        <ele>1016.73</ele>
        <time>2015-03-27T12:04:58Z</time>
      </trkpt>
      <trkpt lat="43.73842" lon="7.06411">
        <ele>1016.25</ele>
        <time>2015-03-27T12:05:23Z</time>
      </trkpt>
      <trkpt lat="43.73842" lon="7.06412">
        <ele>1015.77</ele>
        <time>2015-03-27T12:05:42Z</time>
      </trkpt>
      <trkpt lat="43.73842" lon="7.06412">
        <ele>1016.25</ele>
        <time>2015-03-27T12:05:58Z</time>
      </trkpt>
      <trkpt lat="43.73842" lon="7.06412">
        <ele>1016.25</ele>
        <time>2015-03-27T12:06:18Z</time>
      </trkpt>
      <trkpt lat="43.73842" lon="7.06412">
        <ele>1016.25</ele>
        <time>2015-03-27T12:06:36Z</time>
      </trkpt>
      <trkpt lat="43.73842" lon="7.06412">
        <ele>1016.25</ele>
        <time>2015-03-27T12:06:47Z</time>
      </trkpt>
      <trkpt lat="43.73843" lon="7.06412">
        <ele>1015.29</ele>
        <time>2015-03-27T12:07:00Z</time>
      </trkpt>
      <trkpt lat="43.73842" lon="7.06412">
        <ele>1015.29</ele>
        <time>2015-03-27T12:07:26Z</time>
      </trkpt>
      <trkpt lat="43.73842" lon="7.06412">
        <ele>1015.29</ele>
        <time>2015-03-27T12:07:59Z</time>
      </trkpt>
      <trkpt lat="43.73842" lon="7.06412">
        <ele>1015.77</ele>
        <time>2015-03-27T12:08:33Z</time>
      </trkpt>
      <trkpt lat="43.73842" lon="7.06412">
        <ele>1016.25</ele>
        <time>2015-03-27T12:09:06Z</time>
      </trkpt>
      <trkpt lat="43.73842" lon="7.06412">
        <ele>1016.25</ele>
        <time>2015-03-27T12:09:37Z</time>
      </trkpt>
      <trkpt lat="43.73842" lon="7.06413">
        <ele>1016.73</ele>
        <time>2015-03-27T12:10:09Z</time>
      </trkpt>
      <trkpt lat="43.73842" lon="7.06412">
        <ele>1016.73</ele>
        <time>2015-03-27T12:10:34Z</time>
      </trkpt>
      <trkpt lat="43.73843" lon="7.06413">
        <ele>1016.25</ele>
        <time>2015-03-27T12:11:02Z</time>
      </trkpt>
      <trkpt lat="43.73843" lon="7.06412">
        <ele>1017.21</ele>
        <time>2015-03-27T12:11:32Z</time>
      </trkpt>
      <trkpt lat="43.73843" lon="7.06412">
        <ele>1017.69</ele>
        <time>2015-03-27T12:12:09Z</time>
      </trkpt>
      <trkpt lat="43.73843" lon="7.06412">
        <ele>1017.69</ele>
        <time>2015-03-27T12:12:43Z</time>
      </trkpt>
      <trkpt lat="43.73843" lon="7.06412">
        <ele>1019.13</ele>
        <time>2015-03-27T12:13:08Z</time>
      </trkpt>
      <trkpt lat="43.73843" lon="7.06412">
        <ele>1017.69</ele>
        <time>2015-03-27T12:13:36Z</time>
      </trkpt>
      <trkpt lat="43.73843" lon="7.06412">
        <ele>1017.69</ele>
        <time>2015-03-27T12:13:57Z</time>
      </trkpt>
      <trkpt lat="43.73842" lon="7.06412">
        <ele>1017.69</ele>
        <time>2015-03-27T12:14:12Z</time>
      </trkpt>
      <trkpt lat="43.73842" lon="7.06412">
        <ele>1017.21</ele>
        <time>2015-03-27T12:14:36Z</time>
      </trkpt>
      <trkpt lat="43.73843" lon="7.06412">
        <ele>1017.69</ele>
        <time>2015-03-27T12:14:59Z</time>
      </trkpt>
      <trkpt lat="43.73843" lon="7.06412">
        <ele>1017.21</ele>
        <time>2015-03-27T12:15:21Z</time>
      </trkpt>
      <trkpt lat="43.73843" lon="7.06413">
        <ele>1018.17</ele>
        <time>2015-03-27T12:15:41Z</time>
      </trkpt>
      <trkpt lat="43.73843" lon="7.06413">
        <ele>1017.69</ele>
        <time>2015-03-27T12:15:52Z</time>
      </trkpt>
      <trkpt lat="43.73842" lon="7.06412">
        <ele>1017.21</ele>
        <time>2015-03-27T12:16:00Z</time>
      </trkpt>
      <trkpt lat="43.73842" lon="7.06412">
        <ele>1016.73</ele>
        <time>2015-03-27T12:16:16Z</time>
      </trkpt>
      <trkpt lat="43.73842" lon="7.06413">
        <ele>1017.21</ele>
        <time>2015-03-27T12:16:30Z</time>
      </trkpt>
      <trkpt lat="43.7384" lon="7.06413">
        <ele>1017.21</ele>
        <time>2015-03-27T12:16:39Z</time>
      </trkpt>
      <trkpt lat="43.73837" lon="7.06411">
        <ele>1016.73</ele>
        <time>2015-03-27T12:16:47Z</time>
      </trkpt>
      <trkpt lat="43.73836" lon="7.06411">
        <ele>1016.25</ele>
        <time>2015-03-27T12:16:49Z</time>
      </trkpt>
      <trkpt lat="43.73835" lon="7.06411">
        <ele>1016.25</ele>
        <time>2015-03-27T12:16:51Z</time>
      </trkpt>
      <trkpt lat="43.73828" lon="7.06408">
        <ele>1015.29</ele>
        <time>2015-03-27T12:17:01Z</time>
      </trkpt>
      <trkpt lat="43.73827" lon="7.06408">
        <ele>1014.81</ele>
        <time>2015-03-27T12:17:02Z</time>
      </trkpt>
      <trkpt lat="43.73819" lon="7.06407">
        <ele>1013.37</ele>
        <time>2015-03-27T12:17:12Z</time>
      </trkpt>
      <trkpt lat="43.73819" lon="7.06406">
        <ele>1013.85</ele>
        <time>2015-03-27T12:17:15Z</time>
      </trkpt>
      <trkpt lat="43.73819" lon="7.06405">
        <ele>1014.33</ele>
        <time>2015-03-27T12:17:17Z</time>
      </trkpt>
      <trkpt lat="43.73814" lon="7.06398">
        <ele>1013.85</ele>
        <time>2015-03-27T12:17:24Z</time>
      </trkpt>
      <trkpt lat="43.73813" lon="7.06394">
        <ele>1013.85</ele>
        <time>2015-03-27T12:17:28Z</time>
      </trkpt>
      <trkpt lat="43.73813" lon="7.06389">
        <ele>1014.81</ele>
        <time>2015-03-27T12:17:32Z</time>
      </trkpt>
      <trkpt lat="43.73814" lon="7.0638">
        <ele>1015.29</ele>
        <time>2015-03-27T12:17:39Z</time>
      </trkpt>
      <trkpt lat="43.73811" lon="7.06371">
        <ele>1014.81</ele>
        <time>2015-03-27T12:17:46Z</time>
      </trkpt>
      <trkpt lat="43.73809" lon="7.06358">
        <ele>1015.77</ele>
        <time>2015-03-27T12:17:56Z</time>
      </trkpt>
      <trkpt lat="43.73807" lon="7.06342">
        <ele>1016.73</ele>
        <time>2015-03-27T12:18:08Z</time>
      </trkpt>
      <trkpt lat="43.73806" lon="7.06327">
        <ele>1017.69</ele>
        <time>2015-03-27T12:18:19Z</time>
      </trkpt>
      <trkpt lat="43.73806" lon="7.06321">
        <ele>1017.69</ele>
        <time>2015-03-27T12:18:23Z</time>
      </trkpt>
      <trkpt lat="43.73802" lon="7.06314">
        <ele>1018.17</ele>
        <time>2015-03-27T12:18:33Z</time>
      </trkpt>
      <trkpt lat="43.73801" lon="7.06313">
        <ele>1018.65</ele>
        <time>2015-03-27T12:18:46Z</time>
      </trkpt>
      <trkpt lat="43.73802" lon="7.06298">
        <ele>1016.73</ele>
        <time>2015-03-27T12:18:58Z</time>
      </trkpt>
      <trkpt lat="43.73802" lon="7.06296">
        <ele>1016.73</ele>
        <time>2015-03-27T12:18:59Z</time>
      </trkpt>
      <trkpt lat="43.73801" lon="7.06283">
        <ele>1014.81</ele>
        <time>2015-03-27T12:19:09Z</time>
      </trkpt>
      <trkpt lat="43.738" lon="7.06272">
        <ele>1013.37</ele>
        <time>2015-03-27T12:19:17Z</time>
      </trkpt>
      <trkpt lat="43.73791" lon="7.06258">
        <ele>1011.93</ele>
        <time>2015-03-27T12:19:27Z</time>
      </trkpt>
      <trkpt lat="43.73786" lon="7.06254">
        <ele>1011.44</ele>
        <time>2015-03-27T12:19:34Z</time>
      </trkpt>
      <trkpt lat="43.73781" lon="7.06241">
        <ele>1009.52</ele>
        <time>2015-03-27T12:19:45Z</time>
      </trkpt>
      <trkpt lat="43.73774" lon="7.06225">
        <ele>1008.08</ele>
        <time>2015-03-27T12:19:58Z</time>
      </trkpt>
      <trkpt lat="43.73771" lon="7.06214">
        <ele>1006.64</ele>
        <time>2015-03-27T12:20:07Z</time>
      </trkpt>
      <trkpt lat="43.73771" lon="7.0621">
        <ele>1006.16</ele>
        <time>2015-03-27T12:20:10Z</time>
      </trkpt>
      <trkpt lat="43.7377" lon="7.062">
        <ele>1005.2</ele>
        <time>2015-03-27T12:20:17Z</time>
      </trkpt>
      <trkpt lat="43.7377" lon="7.0619">
        <ele>1004.23</ele>
        <time>2015-03-27T12:20:23Z</time>
      </trkpt>
      <trkpt lat="43.73765" lon="7.06176">
        <ele>1002.79</ele>
        <time>2015-03-27T12:20:34Z</time>
      </trkpt>
      <trkpt lat="43.73765" lon="7.06172">
        <ele>1002.79</ele>
        <time>2015-03-27T12:20:37Z</time>
      </trkpt>
      <trkpt lat="43.73763" lon="7.06166">
        <ele>1002.31</ele>
        <time>2015-03-27T12:20:41Z</time>
      </trkpt>
      <trkpt lat="43.73763" lon="7.06161">
        <ele>1001.35</ele>
        <time>2015-03-27T12:20:44Z</time>
      </trkpt>
      <trkpt lat="43.73758" lon="7.0615">
        <ele>1000.87</ele>
        <time>2015-03-27T12:20:52Z</time>
      </trkpt>
      <trkpt lat="43.73753" lon="7.06129">
        <ele>999.91</ele>
        <time>2015-03-27T12:21:05Z</time>
      </trkpt>
      <trkpt lat="43.73752" lon="7.0612">
        <ele>999.91</ele>
        <time>2015-03-27T12:21:11Z</time>
      </trkpt>
      <trkpt lat="43.73749" lon="7.0611">
        <ele>999.43</ele>
        <time>2015-03-27T12:21:17Z</time>
      </trkpt>
      <trkpt lat="43.73749" lon="7.06106">
        <ele>999.43</ele>
        <time>2015-03-27T12:21:20Z</time>
      </trkpt>
      <trkpt lat="43.73745" lon="7.06092">
        <ele>999.43</ele>
        <time>2015-03-27T12:21:28Z</time>
      </trkpt>
      <trkpt lat="43.73738" lon="7.06076">
        <ele>998.95</ele>
        <time>2015-03-27T12:21:39Z</time>
      </trkpt>
      <trkpt lat="43.73738" lon="7.06072">
        <ele>998.95</ele>
        <time>2015-03-27T12:21:42Z</time>
      </trkpt>
      <trkpt lat="43.73736" lon="7.06064">
        <ele>998.95</ele>
        <time>2015-03-27T12:21:48Z</time>
      </trkpt>
      <trkpt lat="43.73734" lon="7.06044">
        <ele>998.47</ele>
        <time>2015-03-27T12:22:01Z</time>
      </trkpt>
      <trkpt lat="43.73732" lon="7.06039">
        <ele>997.99</ele>
        <time>2015-03-27T12:22:04Z</time>
      </trkpt>
      <trkpt lat="43.73732" lon="7.06026">
        <ele>997.99</ele>
        <time>2015-03-27T12:22:13Z</time>
      </trkpt>
      <trkpt lat="43.73733" lon="7.06008">
        <ele>997.99</ele>
        <time>2015-03-27T12:22:24Z</time>
      </trkpt>
      <trkpt lat="43.73734" lon="7.06004">
        <ele>997.51</ele>
        <time>2015-03-27T12:22:27Z</time>
      </trkpt>
      <trkpt lat="43.73734" lon="7.05995">
        <ele>997.02</ele>
        <time>2015-03-27T12:22:33Z</time>
      </trkpt>
      <trkpt lat="43.7374" lon="7.0597">
        <ele>996.54</ele>
        <time>2015-03-27T12:22:48Z</time>
      </trkpt>
      <trkpt lat="43.73741" lon="7.05966">
        <ele>996.54</ele>
        <time>2015-03-27T12:22:51Z</time>
      </trkpt>
      <trkpt lat="43.73745" lon="7.05954">
        <ele>996.06</ele>
        <time>2015-03-27T12:22:58Z</time>
      </trkpt>
      <trkpt lat="43.73746" lon="7.05945">
        <ele>995.58</ele>
        <time>2015-03-27T12:23:04Z</time>
      </trkpt>
      <trkpt lat="43.73755" lon="7.05929">
        <ele>995.1</ele>
        <time>2015-03-27T12:23:15Z</time>
      </trkpt>
      <trkpt lat="43.73761" lon="7.05919">
        <ele>994.62</ele>
        <time>2015-03-27T12:23:25Z</time>
      </trkpt>
      <trkpt lat="43.73762" lon="7.05917">
        <ele>995.1</ele>
        <time>2015-03-27T12:23:26Z</time>
      </trkpt>
      <trkpt lat="43.73763" lon="7.0591">
        <ele>994.62</ele>
        <time>2015-03-27T12:23:31Z</time>
      </trkpt>
      <trkpt lat="43.73766" lon="7.05902">
        <ele>993.66</ele>
        <time>2015-03-27T12:23:37Z</time>
      </trkpt>
      <trkpt lat="43.73767" lon="7.05898">
        <ele>992.7</ele>
        <time>2015-03-27T12:23:40Z</time>
      </trkpt>
      <trkpt lat="43.73771" lon="7.05892">
        <ele>992.22</ele>
        <time>2015-03-27T12:23:46Z</time>
      </trkpt>
      <trkpt lat="43.73772" lon="7.05879">
        <ele>989.33</ele>
        <time>2015-03-27T12:23:57Z</time>
      </trkpt>
      <trkpt lat="43.73776" lon="7.05865">
        <ele>987.89</ele>
        <time>2015-03-27T12:24:09Z</time>
      </trkpt>
      <trkpt lat="43.73776" lon="7.05861">
        <ele>987.41</ele>
        <time>2015-03-27T12:24:12Z</time>
      </trkpt>
      <trkpt lat="43.73778" lon="7.05855">
        <ele>987.41</ele>
        <time>2015-03-27T12:24:16Z</time>
      </trkpt>
      <trkpt lat="43.7378" lon="7.05854">
        <ele>986.93</ele>
        <time>2015-03-27T12:24:18Z</time>
      </trkpt>
      <trkpt lat="43.73782" lon="7.05842">
        <ele>985.49</ele>
        <time>2015-03-27T12:24:26Z</time>
      </trkpt>
      <trkpt lat="43.73785" lon="7.05833">
        <ele>985.01</ele>
        <time>2015-03-27T12:24:32Z</time>
      </trkpt>
      <trkpt lat="43.73788" lon="7.05811">
        <ele>984.05</ele>
        <time>2015-03-27T12:24:45Z</time>
      </trkpt>
      <trkpt lat="43.73788" lon="7.05808">
        <ele>983.57</ele>
        <time>2015-03-27T12:24:47Z</time>
      </trkpt>
      <trkpt lat="43.73797" lon="7.05798">
        <ele>982.12</ele>
        <time>2015-03-27T12:24:57Z</time>
      </trkpt>
      <trkpt lat="43.73799" lon="7.058">
        <ele>981.64</ele>
        <time>2015-03-27T12:24:59Z</time>
      </trkpt>
      <trkpt lat="43.73802" lon="7.05803">
        <ele>981.16</ele>
        <time>2015-03-27T12:25:04Z</time>
      </trkpt>
      <trkpt lat="43.73812" lon="7.05815">
        <ele>977.8</ele>
        <time>2015-03-27T12:25:16Z</time>
      </trkpt>
      <trkpt lat="43.73817" lon="7.05818">
        <ele>976.84</ele>
        <time>2015-03-27T12:25:21Z</time>
      </trkpt>
      <trkpt lat="43.73825" lon="7.05831">
        <ele>974.91</ele>
        <time>2015-03-27T12:25:33Z</time>
      </trkpt>
      <trkpt lat="43.73825" lon="7.05833">
        <ele>974.91</ele>
        <time>2015-03-27T12:25:34Z</time>
      </trkpt>
      <trkpt lat="43.73833" lon="7.05846">
        <ele>973.95</ele>
        <time>2015-03-27T12:25:45Z</time>
      </trkpt>
      <trkpt lat="43.73837" lon="7.05851">
        <ele>972.51</ele>
        <time>2015-03-27T12:25:49Z</time>
      </trkpt>
      <trkpt lat="43.73841" lon="7.05854">
        <ele>970.59</ele>
        <time>2015-03-27T12:25:59Z</time>
      </trkpt>
      <trkpt lat="43.73842" lon="7.05853">
        <ele>970.11</ele>
        <time>2015-03-27T12:26:12Z</time>
      </trkpt>
      <trkpt lat="43.73842" lon="7.05853">
        <ele>972.03</ele>
        <time>2015-03-27T12:26:27Z</time>
      </trkpt>
      <trkpt lat="43.73848" lon="7.0585">
        <ele>971.07</ele>
        <time>2015-03-27T12:26:35Z</time>
      </trkpt>
      <trkpt lat="43.73859" lon="7.0585">
        <ele>967.7</ele>
        <time>2015-03-27T12:26:46Z</time>
      </trkpt>
      <trkpt lat="43.73862" lon="7.0585">
        <ele>967.22</ele>
        <time>2015-03-27T12:26:49Z</time>
      </trkpt>
      <trkpt lat="43.73865" lon="7.05847">
        <ele>966.26</ele>
        <time>2015-03-27T12:26:53Z</time>
      </trkpt>
      <trkpt lat="43.73868" lon="7.05837">
        <ele>964.34</ele>
        <time>2015-03-27T12:27:03Z</time>
      </trkpt>
      <trkpt lat="43.73868" lon="7.05835">
        <ele>963.86</ele>
        <time>2015-03-27T12:27:11Z</time>
      </trkpt>
      <trkpt lat="43.73869" lon="7.05832">
        <ele>963.38</ele>
        <time>2015-03-27T12:27:14Z</time>
      </trkpt>
      <trkpt lat="43.7387" lon="7.05827">
        <ele>962.42</ele>
        <time>2015-03-27T12:27:19Z</time>
      </trkpt>
      <trkpt lat="43.73873" lon="7.05824">
        <ele>961.46</ele>
        <time>2015-03-27T12:27:22Z</time>
      </trkpt>
      <trkpt lat="43.73874" lon="7.05819">
        <ele>960.01</ele>
        <time>2015-03-27T12:27:26Z</time>
      </trkpt>
      <trkpt lat="43.73874" lon="7.058">
        <ele>956.65</ele>
        <time>2015-03-27T12:27:38Z</time>
      </trkpt>
      <trkpt lat="43.73874" lon="7.05799">
        <ele>956.65</ele>
        <time>2015-03-27T12:27:39Z</time>
      </trkpt>
      <trkpt lat="43.73876" lon="7.05797">
        <ele>956.17</ele>
        <time>2015-03-27T12:27:41Z</time>
      </trkpt>
      <trkpt lat="43.73882" lon="7.05797">
        <ele>954.25</ele>
        <time>2015-03-27T12:27:50Z</time>
      </trkpt>
      <trkpt lat="43.73883" lon="7.05798">
        <ele>953.28</ele>
        <time>2015-03-27T12:27:52Z</time>
      </trkpt>
      <trkpt lat="43.73885" lon="7.05798">
        <ele>952.32</ele>
        <time>2015-03-27T12:27:55Z</time>
      </trkpt>
      <trkpt lat="43.73895" lon="7.05798">
        <ele>949.92</ele>
        <time>2015-03-27T12:28:05Z</time>
      </trkpt>
      <trkpt lat="43.73896" lon="7.05797">
        <ele>949.44</ele>
        <time>2015-03-27T12:28:07Z</time>
      </trkpt>
      <trkpt lat="43.73899" lon="7.05795">
        <ele>948.48</ele>
        <time>2015-03-27T12:28:11Z</time>
      </trkpt>
      <trkpt lat="43.73901" lon="7.05794">
        <ele>947.52</ele>
        <time>2015-03-27T12:28:14Z</time>
      </trkpt>
      <trkpt lat="43.73908" lon="7.05794">
        <ele>946.07</ele>
        <time>2015-03-27T12:28:19Z</time>
      </trkpt>
      <trkpt lat="43.73919" lon="7.05793">
        <ele>942.71</ele>
        <time>2015-03-27T12:28:32Z</time>
      </trkpt>
      <trkpt lat="43.73921" lon="7.05791">
        <ele>941.27</ele>
        <time>2015-03-27T12:28:44Z</time>
      </trkpt>
      <trkpt lat="43.73924" lon="7.05789">
        <ele>940.31</ele>
        <time>2015-03-27T12:28:56Z</time>
      </trkpt>
      <trkpt lat="43.73929" lon="7.05785">
        <ele>936.94</ele>
        <time>2015-03-27T12:29:03Z</time>
      </trkpt>
      <trkpt lat="43.73929" lon="7.05784">
        <ele>936.94</ele>
        <time>2015-03-27T12:29:04Z</time>
      </trkpt>
      <trkpt lat="43.73933" lon="7.05783">
        <ele>935.02</ele>
        <time>2015-03-27T12:29:09Z</time>
      </trkpt>
      <trkpt lat="43.73938" lon="7.0578">
        <ele>933.1</ele>
        <time>2015-03-27T12:29:17Z</time>
      </trkpt>
      <trkpt lat="43.73942" lon="7.05776">
        <ele>930.21</ele>
        <time>2015-03-27T12:29:23Z</time>
      </trkpt>
      <trkpt lat="43.73944" lon="7.05775">
        <ele>929.73</ele>
        <time>2015-03-27T12:29:25Z</time>
      </trkpt>
      <trkpt lat="43.73948" lon="7.05772">
        <ele>927.81</ele>
        <time>2015-03-27T12:29:30Z</time>
      </trkpt>
      <trkpt lat="43.73955" lon="7.05769">
        <ele>924.93</ele>
        <time>2015-03-27T12:29:36Z</time>
      </trkpt>
      <trkpt lat="43.73957" lon="7.05768">
        <ele>924.45</ele>
        <time>2015-03-27T12:29:39Z</time>
      </trkpt>
      <trkpt lat="43.73961" lon="7.05767">
        <ele>923.96</ele>
        <time>2015-03-27T12:29:42Z</time>
      </trkpt>
      <trkpt lat="43.73971" lon="7.05765">
        <ele>922.04</ele>
        <time>2015-03-27T12:29:51Z</time>
      </trkpt>
      <trkpt lat="43.73977" lon="7.05764">
        <ele>922.04</ele>
        <time>2015-03-27T12:29:56Z</time>
      </trkpt>
      <trkpt lat="43.7398" lon="7.05765">
        <ele>920.6</ele>
        <time>2015-03-27T12:30:02Z</time>
      </trkpt>
      <trkpt lat="43.73985" lon="7.05768">
        <ele>919.16</ele>
        <time>2015-03-27T12:30:07Z</time>
      </trkpt>
      <trkpt lat="43.73988" lon="7.05769">
        <ele>918.68</ele>
        <time>2015-03-27T12:30:11Z</time>
      </trkpt>
      <trkpt lat="43.73992" lon="7.05771">
        <ele>917.24</ele>
        <time>2015-03-27T12:30:16Z</time>
      </trkpt>
      <trkpt lat="43.74004" lon="7.0578">
        <ele>914.35</ele>
        <time>2015-03-27T12:30:27Z</time>
      </trkpt>
      <trkpt lat="43.74013" lon="7.05784">
        <ele>911.95</ele>
        <time>2015-03-27T12:30:36Z</time>
      </trkpt>
      <trkpt lat="43.74022" lon="7.05782">
        <ele>910.51</ele>
        <time>2015-03-27T12:30:44Z</time>
      </trkpt>
      <trkpt lat="43.74029" lon="7.0578">
        <ele>908.1</ele>
        <time>2015-03-27T12:30:54Z</time>
      </trkpt>
      <trkpt lat="43.74038" lon="7.05781">
        <ele>905.7</ele>
        <time>2015-03-27T12:31:02Z</time>
      </trkpt>
      <trkpt lat="43.7404" lon="7.05782">
        <ele>905.22</ele>
        <time>2015-03-27T12:31:04Z</time>
      </trkpt>
      <trkpt lat="43.74044" lon="7.05784">
        <ele>903.78</ele>
        <time>2015-03-27T12:31:07Z</time>
      </trkpt>
      <trkpt lat="43.74046" lon="7.05784">
        <ele>903.3</ele>
        <time>2015-03-27T12:31:09Z</time>
      </trkpt>
      <trkpt lat="43.74051" lon="7.05783">
        <ele>902.33</ele>
        <time>2015-03-27T12:31:13Z</time>
      </trkpt>
      <trkpt lat="43.74056" lon="7.05783">
        <ele>901.85</ele>
        <time>2015-03-27T12:31:17Z</time>
      </trkpt>
      <trkpt lat="43.74061" lon="7.05782">
        <ele>901.37</ele>
        <time>2015-03-27T12:31:21Z</time>
      </trkpt>
      <trkpt lat="43.74066" lon="7.05784">
        <ele>900.89</ele>
        <time>2015-03-27T12:31:25Z</time>
      </trkpt>
      <trkpt lat="43.74073" lon="7.05785">
        <ele>899.93</ele>
        <time>2015-03-27T12:31:30Z</time>
      </trkpt>
      <trkpt lat="43.7408" lon="7.05786">
        <ele>898.97</ele>
        <time>2015-03-27T12:31:35Z</time>
      </trkpt>
      <trkpt lat="43.74085" lon="7.0579">
        <ele>897.53</ele>
        <time>2015-03-27T12:31:39Z</time>
      </trkpt>
      <trkpt lat="43.74091" lon="7.05798">
        <ele>895.12</ele>
        <time>2015-03-27T12:31:46Z</time>
      </trkpt>
      <trkpt lat="43.741" lon="7.05803">
        <ele>892.24</ele>
        <time>2015-03-27T12:31:56Z</time>
      </trkpt>
      <trkpt lat="43.74102" lon="7.05805">
        <ele>891.76</ele>
        <time>2015-03-27T12:31:59Z</time>
      </trkpt>
      <trkpt lat="43.7411" lon="7.05813">
        <ele>888.4</ele>
        <time>2015-03-27T12:32:09Z</time>
      </trkpt>
      <trkpt lat="43.74111" lon="7.05814">
        <ele>888.4</ele>
        <time>2015-03-27T12:32:10Z</time>
      </trkpt>
      <trkpt lat="43.74116" lon="7.05817">
        <ele>886.95</ele>
        <time>2015-03-27T12:32:16Z</time>
      </trkpt>
      <trkpt lat="43.74128" lon="7.0582">
        <ele>884.55</ele>
        <time>2015-03-27T12:32:25Z</time>
      </trkpt>
      <trkpt lat="43.74135" lon="7.05817">
        <ele>884.55</ele>
        <time>2015-03-27T12:32:31Z</time>
      </trkpt>
      <trkpt lat="43.74142" lon="7.05817">
        <ele>883.59</ele>
        <time>2015-03-27T12:32:37Z</time>
      </trkpt>
      <trkpt lat="43.74153" lon="7.05826">
        <ele>881.19</ele>
        <time>2015-03-27T12:32:47Z</time>
      </trkpt>
      <trkpt lat="43.74156" lon="7.05829">
        <ele>880.22</ele>
        <time>2015-03-27T12:32:50Z</time>
      </trkpt>
      <trkpt lat="43.74163" lon="7.05831">
        <ele>879.74</ele>
        <time>2015-03-27T12:32:55Z</time>
      </trkpt>
      <trkpt lat="43.74173" lon="7.0583">
        <ele>879.26</ele>
        <time>2015-03-27T12:33:02Z</time>
      </trkpt>
      <trkpt lat="43.74181" lon="7.05836">
        <ele>877.34</ele>
        <time>2015-03-27T12:33:10Z</time>
      </trkpt>
      <trkpt lat="43.74187" lon="7.0584">
        <ele>875.9</ele>
        <time>2015-03-27T12:33:16Z</time>
      </trkpt>
      <trkpt lat="43.74187" lon="7.05844">
        <ele>874.46</ele>
        <time>2015-03-27T12:33:19Z</time>
      </trkpt>
      <trkpt lat="43.74185" lon="7.05864">
        <ele>873.5</ele>
        <time>2015-03-27T12:33:30Z</time>
      </trkpt>
      <trkpt lat="43.74187" lon="7.05874">
        <ele>873.01</ele>
        <time>2015-03-27T12:33:36Z</time>
      </trkpt>
      <trkpt lat="43.74195" lon="7.05882">
        <ele>871.09</ele>
        <time>2015-03-27T12:33:43Z</time>
      </trkpt>
      <trkpt lat="43.74202" lon="7.05894">
        <ele>867.73</ele>
        <time>2015-03-27T12:33:54Z</time>
      </trkpt>
      <trkpt lat="43.74203" lon="7.0589">
        <ele>866.77</ele>
        <time>2015-03-27T12:33:57Z</time>
      </trkpt>
      <trkpt lat="43.74211" lon="7.05892">
        <ele>867.73</ele>
        <time>2015-03-27T12:34:06Z</time>
      </trkpt>
      <trkpt lat="43.74215" lon="7.05894">
        <ele>868.21</ele>
        <time>2015-03-27T12:34:10Z</time>
      </trkpt>
      <trkpt lat="43.74218" lon="7.05897">
        <ele>869.17</ele>
        <time>2015-03-27T12:34:14Z</time>
      </trkpt>
      <trkpt lat="43.74219" lon="7.05899">
        <ele>869.17</ele>
        <time>2015-03-27T12:34:16Z</time>
      </trkpt>
      <trkpt lat="43.74223" lon="7.05906">
        <ele>870.13</ele>
        <time>2015-03-27T12:34:23Z</time>
      </trkpt>
      <trkpt lat="43.74224" lon="7.05911">
        <ele>870.61</ele>
        <time>2015-03-27T12:34:27Z</time>
      </trkpt>
      <trkpt lat="43.74229" lon="7.05919">
        <ele>872.05</ele>
        <time>2015-03-27T12:34:36Z</time>
      </trkpt>
      <trkpt lat="43.74235" lon="7.05928">
        <ele>873.98</ele>
        <time>2015-03-27T12:34:46Z</time>
      </trkpt>
      <trkpt lat="43.74236" lon="7.05937">
        <ele>874.94</ele>
        <time>2015-03-27T12:34:55Z</time>
      </trkpt>
      <trkpt lat="43.74236" lon="7.05947">
        <ele>875.9</ele>
        <time>2015-03-27T12:35:03Z</time>
      </trkpt>
      <trkpt lat="43.74241" lon="7.05958">
        <ele>877.34</ele>
        <time>2015-03-27T12:35:13Z</time>
      </trkpt>
      <trkpt lat="43.74248" lon="7.05966">
        <ele>879.26</ele>
        <time>2015-03-27T12:35:23Z</time>
      </trkpt>
      <trkpt lat="43.74251" lon="7.05968">
        <ele>881.19</ele>
        <time>2015-03-27T12:35:31Z</time>
      </trkpt>
      <trkpt lat="43.74255" lon="7.05972">
        <ele>882.63</ele>
        <time>2015-03-27T12:35:39Z</time>
      </trkpt>
      <trkpt lat="43.74261" lon="7.05975">
        <ele>884.55</ele>
        <time>2015-03-27T12:35:48Z</time>
      </trkpt>
      <trkpt lat="43.74261" lon="7.05982">
        <ele>885.03</ele>
        <time>2015-03-27T12:35:56Z</time>
      </trkpt>
      <trkpt lat="43.74262" lon="7.05987">
        <ele>885.51</ele>
        <time>2015-03-27T12:36:00Z</time>
      </trkpt>
      <trkpt lat="43.74262" lon="7.0599">
        <ele>885.51</ele>
        <time>2015-03-27T12:36:03Z</time>
      </trkpt>
      <trkpt lat="43.74261" lon="7.05992">
        <ele>885.51</ele>
        <time>2015-03-27T12:36:13Z</time>
      </trkpt>
      <trkpt lat="43.7426" lon="7.05993">
        <ele>885.03</ele>
        <time>2015-03-27T12:36:21Z</time>
      </trkpt>
      <trkpt lat="43.74259" lon="7.05992">
        <ele>885.03</ele>
        <time>2015-03-27T12:36:34Z</time>
      </trkpt>
      <trkpt lat="43.74257" lon="7.05989">
        <ele>885.03</ele>
        <time>2015-03-27T12:36:43Z</time>
      </trkpt>
      <trkpt lat="43.7426" lon="7.05992">
        <ele>885.99</ele>
        <time>2015-03-27T12:36:53Z</time>
      </trkpt>
      <trkpt lat="43.74265" lon="7.06003">
        <ele>887.43</ele>
        <time>2015-03-27T12:37:03Z</time>
      </trkpt>
      <trkpt lat="43.7427" lon="7.06008">
        <ele>889.36</ele>
        <time>2015-03-27T12:37:12Z</time>
      </trkpt>
      <trkpt lat="43.74278" lon="7.06009">
        <ele>891.28</ele>
        <time>2015-03-27T12:37:22Z</time>
      </trkpt>
      <trkpt lat="43.74279" lon="7.06015">
        <ele>892.72</ele>
        <time>2015-03-27T12:37:29Z</time>
      </trkpt>
      <trkpt lat="43.74284" lon="7.06017">
        <ele>895.12</ele>
        <time>2015-03-27T12:37:38Z</time>
      </trkpt>
      <trkpt lat="43.74289" lon="7.06023">
        <ele>896.57</ele>
        <time>2015-03-27T12:37:47Z</time>
      </trkpt>
      <trkpt lat="43.74289" lon="7.06024">
        <ele>896.57</ele>
        <time>2015-03-27T12:37:48Z</time>
      </trkpt>
      <trkpt lat="43.74289" lon="7.06027">
        <ele>897.05</ele>
        <time>2015-03-27T12:37:51Z</time>
      </trkpt>
      <trkpt lat="43.74291" lon="7.06028">
        <ele>897.05</ele>
        <time>2015-03-27T12:37:54Z</time>
      </trkpt>
      <trkpt lat="43.74294" lon="7.06017">
        <ele>898.49</ele>
        <time>2015-03-27T12:38:05Z</time>
      </trkpt>
      <trkpt lat="43.74301" lon="7.06012">
        <ele>899.93</ele>
        <time>2015-03-27T12:38:14Z</time>
      </trkpt>
      <trkpt lat="43.74307" lon="7.0601">
        <ele>901.85</ele>
        <time>2015-03-27T12:38:23Z</time>
      </trkpt>
      <trkpt lat="43.74307" lon="7.0601">
        <ele>902.33</ele>
        <time>2015-03-27T12:38:25Z</time>
      </trkpt>
      <trkpt lat="43.74314" lon="7.06013">
        <ele>903.3</ele>
        <time>2015-03-27T12:38:34Z</time>
      </trkpt>
      <trkpt lat="43.7432" lon="7.06014">
        <ele>905.22</ele>
        <time>2015-03-27T12:38:43Z</time>
      </trkpt>
      <trkpt lat="43.74326" lon="7.06016">
        <ele>906.66</ele>
        <time>2015-03-27T12:38:51Z</time>
      </trkpt>
      <trkpt lat="43.74328" lon="7.06019">
        <ele>906.66</ele>
        <time>2015-03-27T12:38:55Z</time>
      </trkpt>
      <trkpt lat="43.74327" lon="7.06029">
        <ele>908.1</ele>
        <time>2015-03-27T12:39:04Z</time>
      </trkpt>
      <trkpt lat="43.74327" lon="7.06036">
        <ele>909.06</ele>
        <time>2015-03-27T12:39:12Z</time>
      </trkpt>
      <trkpt lat="43.74328" lon="7.06041">
        <ele>910.03</ele>
        <time>2015-03-27T12:39:16Z</time>
      </trkpt>
      <trkpt lat="43.74332" lon="7.06045">
        <ele>911.47</ele>
        <time>2015-03-27T12:39:24Z</time>
      </trkpt>
      <trkpt lat="43.74332" lon="7.06049">
        <ele>911.95</ele>
        <time>2015-03-27T12:39:40Z</time>
      </trkpt>
      <trkpt lat="43.74333" lon="7.06051">
        <ele>911.95</ele>
        <time>2015-03-27T12:39:45Z</time>
      </trkpt>
      <trkpt lat="43.74335" lon="7.0605">
        <ele>911.95</ele>
        <time>2015-03-27T12:39:48Z</time>
      </trkpt>
      <trkpt lat="43.74345" lon="7.06049">
        <ele>912.91</ele>
        <time>2015-03-27T12:39:57Z</time>
      </trkpt>
      <trkpt lat="43.74352" lon="7.06035">
        <ele>913.39</ele>
        <time>2015-03-27T12:40:08Z</time>
      </trkpt>
      <trkpt lat="43.74362" lon="7.06023">
        <ele>913.87</ele>
        <time>2015-03-27T12:40:20Z</time>
      </trkpt>
      <trkpt lat="43.74364" lon="7.0602">
        <ele>913.87</ele>
        <time>2015-03-27T12:40:32Z</time>
      </trkpt>
      <trkpt lat="43.74365" lon="7.06018">
        <ele>913.39</ele>
        <time>2015-03-27T12:40:58Z</time>
      </trkpt>
      <trkpt lat="43.74368" lon="7.06016">
        <ele>913.87</ele>
        <time>2015-03-27T12:41:02Z</time>
      </trkpt>
      <trkpt lat="43.74372" lon="7.06012">
        <ele>913.87</ele>
        <time>2015-03-27T12:41:10Z</time>
      </trkpt>
      <trkpt lat="43.74377" lon="7.06009">
        <ele>913.87</ele>
        <time>2015-03-27T12:41:17Z</time>
      </trkpt>
      <trkpt lat="43.7438" lon="7.06004">
        <ele>913.87</ele>
        <time>2015-03-27T12:41:22Z</time>
      </trkpt>
      <trkpt lat="43.74387" lon="7.06001">
        <ele>915.31</ele>
        <time>2015-03-27T12:41:30Z</time>
      </trkpt>
      <trkpt lat="43.74389" lon="7.05999">
        <ele>916.27</ele>
        <time>2015-03-27T12:41:32Z</time>
      </trkpt>
      <trkpt lat="43.74391" lon="7.05993">
        <ele>916.75</ele>
        <time>2015-03-27T12:41:39Z</time>
      </trkpt>
      <trkpt lat="43.74391" lon="7.0599">
        <ele>917.24</ele>
        <time>2015-03-27T12:41:41Z</time>
      </trkpt>
      <trkpt lat="43.74395" lon="7.05986">
        <ele>917.24</ele>
        <time>2015-03-27T12:41:49Z</time>
      </trkpt>
      <trkpt lat="43.74399" lon="7.05983">
        <ele>917.72</ele>
        <time>2015-03-27T12:41:55Z</time>
      </trkpt>
      <trkpt lat="43.74404" lon="7.05976">
        <ele>916.75</ele>
        <time>2015-03-27T12:42:06Z</time>
      </trkpt>
      <trkpt lat="43.74406" lon="7.05974">
        <ele>916.75</ele>
        <time>2015-03-27T12:42:09Z</time>
      </trkpt>
      <trkpt lat="43.74411" lon="7.05972">
        <ele>915.31</ele>
        <time>2015-03-27T12:42:16Z</time>
      </trkpt>
      <trkpt lat="43.74413" lon="7.05971">
        <ele>914.83</ele>
        <time>2015-03-27T12:42:18Z</time>
      </trkpt>
      <trkpt lat="43.74415" lon="7.05963">
        <ele>915.31</ele>
        <time>2015-03-27T12:42:24Z</time>
      </trkpt>
      <trkpt lat="43.74414" lon="7.05956">
        <ele>914.83</ele>
        <time>2015-03-27T12:42:28Z</time>
      </trkpt>
      <trkpt lat="43.74417" lon="7.05937">
        <ele>913.87</ele>
        <time>2015-03-27T12:42:40Z</time>
      </trkpt>
      <trkpt lat="43.74416" lon="7.0593">
        <ele>913.87</ele>
        <time>2015-03-27T12:42:44Z</time>
      </trkpt>
      <trkpt lat="43.74416" lon="7.0591">
        <ele>915.31</ele>
        <time>2015-03-27T12:42:57Z</time>
      </trkpt>
      <trkpt lat="43.74417" lon="7.05908">
        <ele>915.31</ele>
        <time>2015-03-27T12:42:58Z</time>
      </trkpt>
      <trkpt lat="43.74419" lon="7.05897">
        <ele>915.31</ele>
        <time>2015-03-27T12:43:06Z</time>
      </trkpt>
      <trkpt lat="43.74422" lon="7.05878">
        <ele>915.79</ele>
        <time>2015-03-27T12:43:19Z</time>
      </trkpt>
      <trkpt lat="43.74426" lon="7.05861">
        <ele>916.27</ele>
        <time>2015-03-27T12:43:30Z</time>
      </trkpt>
      <trkpt lat="43.74435" lon="7.05846">
        <ele>916.27</ele>
        <time>2015-03-27T12:43:42Z</time>
      </trkpt>
      <trkpt lat="43.74444" lon="7.05837">
        <ele>916.75</ele>
        <time>2015-03-27T12:43:52Z</time>
      </trkpt>
      <trkpt lat="43.74458" lon="7.05835">
        <ele>917.72</ele>
        <time>2015-03-27T12:44:04Z</time>
      </trkpt>
      <trkpt lat="43.74472" lon="7.05846">
        <ele>917.24</ele>
        <time>2015-03-27T12:44:17Z</time>
      </trkpt>
      <trkpt lat="43.74481" lon="7.05852">
        <ele>917.24</ele>
        <time>2015-03-27T12:44:25Z</time>
      </trkpt>
      <trkpt lat="43.74494" lon="7.0586">
        <ele>916.75</ele>
        <time>2015-03-27T12:44:37Z</time>
      </trkpt>
      <trkpt lat="43.74506" lon="7.05863">
        <ele>917.72</ele>
        <time>2015-03-27T12:44:48Z</time>
      </trkpt>
      <trkpt lat="43.74505" lon="7.05863">
        <ele>917.72</ele>
        <time>2015-03-27T12:44:58Z</time>
      </trkpt>
      <trkpt lat="43.74507" lon="7.05863">
        <ele>918.2</ele>
        <time>2015-03-27T12:45:00Z</time>
      </trkpt>
      <trkpt lat="43.74511" lon="7.05865">
        <ele>918.68</ele>
        <time>2015-03-27T12:45:03Z</time>
      </trkpt>
      <trkpt lat="43.74519" lon="7.05864">
        <ele>919.64</ele>
        <time>2015-03-27T12:45:10Z</time>
      </trkpt>
      <trkpt lat="43.74529" lon="7.05864">
        <ele>920.12</ele>
        <time>2015-03-27T12:45:19Z</time>
      </trkpt>
      <trkpt lat="43.74536" lon="7.0586">
        <ele>920.6</ele>
        <time>2015-03-27T12:45:25Z</time>
      </trkpt>
      <trkpt lat="43.74538" lon="7.05859">
        <ele>920.6</ele>
        <time>2015-03-27T12:45:27Z</time>
      </trkpt>
      <trkpt lat="43.74543" lon="7.05854">
        <ele>921.56</ele>
        <time>2015-03-27T12:45:32Z</time>
      </trkpt>
      <trkpt lat="43.74544" lon="7.05851">
        <ele>922.04</ele>
        <time>2015-03-27T12:45:35Z</time>
      </trkpt>
      <trkpt lat="43.74549" lon="7.05842">
        <ele>923.48</ele>
        <time>2015-03-27T12:45:43Z</time>
      </trkpt>
      <trkpt lat="43.74551" lon="7.05838">
        <ele>924.45</ele>
        <time>2015-03-27T12:45:47Z</time>
      </trkpt>
      <trkpt lat="43.74555" lon="7.05827">
        <ele>926.37</ele>
        <time>2015-03-27T12:45:57Z</time>
      </trkpt>
      <trkpt lat="43.74562" lon="7.05817">
        <ele>927.81</ele>
        <time>2015-03-27T12:46:07Z</time>
      </trkpt>
      <trkpt lat="43.74564" lon="7.05816">
        <ele>928.29</ele>
        <time>2015-03-27T12:46:09Z</time>
      </trkpt>
      <trkpt lat="43.74572" lon="7.05813">
        <ele>929.25</ele>
        <time>2015-03-27T12:46:17Z</time>
      </trkpt>
      <trkpt lat="43.74574" lon="7.05812">
        <ele>929.25</ele>
        <time>2015-03-27T12:46:19Z</time>
      </trkpt>
      <trkpt lat="43.74578" lon="7.05811">
        <ele>929.73</ele>
        <time>2015-03-27T12:46:23Z</time>
      </trkpt>
      <trkpt lat="43.74581" lon="7.05809">
        <ele>930.21</ele>
        <time>2015-03-27T12:46:26Z</time>
      </trkpt>
      <trkpt lat="43.74588" lon="7.0581">
        <ele>930.69</ele>
        <time>2015-03-27T12:46:32Z</time>
      </trkpt>
      <trkpt lat="43.74597" lon="7.05819">
        <ele>932.14</ele>
        <time>2015-03-27T12:46:43Z</time>
      </trkpt>
      <trkpt lat="43.74599" lon="7.05821">
        <ele>932.62</ele>
        <time>2015-03-27T12:46:45Z</time>
      </trkpt>
      <trkpt lat="43.74607" lon="7.05826">
        <ele>932.62</ele>
        <time>2015-03-27T12:46:52Z</time>
      </trkpt>
      <trkpt lat="43.74609" lon="7.05829">
        <ele>933.1</ele>
        <time>2015-03-27T12:46:55Z</time>
      </trkpt>
      <trkpt lat="43.74621" lon="7.05838">
        <ele>933.1</ele>
        <time>2015-03-27T12:47:07Z</time>
      </trkpt>
      <trkpt lat="43.74637" lon="7.05836">
        <ele>932.14</ele>
        <time>2015-03-27T12:47:21Z</time>
      </trkpt>
      <trkpt lat="43.74652" lon="7.05839">
        <ele>931.65</ele>
        <time>2015-03-27T12:47:34Z</time>
      </trkpt>
      <trkpt lat="43.74662" lon="7.05848">
        <ele>931.17</ele>
        <time>2015-03-27T12:47:44Z</time>
      </trkpt>
      <trkpt lat="43.74666" lon="7.0585">
        <ele>930.69</ele>
        <time>2015-03-27T12:47:48Z</time>
      </trkpt>
      <trkpt lat="43.7468" lon="7.0586">
        <ele>928.29</ele>
        <time>2015-03-27T12:48:00Z</time>
      </trkpt>
      <trkpt lat="43.74696" lon="7.0586">
        <ele>928.29</ele>
        <time>2015-03-27T12:48:12Z</time>
      </trkpt>
      <trkpt lat="43.74705" lon="7.05875">
        <ele>928.77</ele>
        <time>2015-03-27T12:48:24Z</time>
      </trkpt>
      <trkpt lat="43.74711" lon="7.05881">
        <ele>929.25</ele>
        <time>2015-03-27T12:48:31Z</time>
      </trkpt>
      <trkpt lat="43.74725" lon="7.05889">
        <ele>930.21</ele>
        <time>2015-03-27T12:48:43Z</time>
      </trkpt>
      <trkpt lat="43.74736" lon="7.059">
        <ele>931.65</ele>
        <time>2015-03-27T12:48:55Z</time>
      </trkpt>
      <trkpt lat="43.74745" lon="7.0591">
        <ele>931.65</ele>
        <time>2015-03-27T12:49:05Z</time>
      </trkpt>
      <trkpt lat="43.74754" lon="7.05915">
        <ele>931.65</ele>
        <time>2015-03-27T12:49:15Z</time>
      </trkpt>
      <trkpt lat="43.74762" lon="7.05911">
        <ele>932.14</ele>
        <time>2015-03-27T12:49:22Z</time>
      </trkpt>
      <trkpt lat="43.74773" lon="7.05902">
        <ele>933.58</ele>
        <time>2015-03-27T12:49:34Z</time>
      </trkpt>
      <trkpt lat="43.74773" lon="7.05901">
        <ele>933.58</ele>
        <time>2015-03-27T12:49:35Z</time>
      </trkpt>
      <trkpt lat="43.74777" lon="7.05897">
        <ele>934.54</ele>
        <time>2015-03-27T12:49:40Z</time>
      </trkpt>
      <trkpt lat="43.74785" lon="7.0589">
        <ele>935.5</ele>
        <time>2015-03-27T12:49:49Z</time>
      </trkpt>
      <trkpt lat="43.74793" lon="7.0588">
        <ele>936.94</ele>
        <time>2015-03-27T12:49:59Z</time>
      </trkpt>
      <trkpt lat="43.74795" lon="7.05875">
        <ele>937.42</ele>
        <time>2015-03-27T12:50:03Z</time>
      </trkpt>
      <trkpt lat="43.748" lon="7.05862">
        <ele>939.35</ele>
        <time>2015-03-27T12:50:14Z</time>
      </trkpt>
      <trkpt lat="43.74801" lon="7.05859">
        <ele>939.83</ele>
        <time>2015-03-27T12:50:17Z</time>
      </trkpt>
      <trkpt lat="43.74809" lon="7.05848">
        <ele>941.75</ele>
        <time>2015-03-27T12:50:28Z</time>
      </trkpt>
      <trkpt lat="43.74816" lon="7.05839">
        <ele>942.71</ele>
        <time>2015-03-27T12:50:38Z</time>
      </trkpt>
      <trkpt lat="43.74825" lon="7.05836">
        <ele>943.67</ele>
        <time>2015-03-27T12:50:47Z</time>
      </trkpt>
      <trkpt lat="43.7483" lon="7.05835">
        <ele>944.15</ele>
        <time>2015-03-27T12:50:53Z</time>
      </trkpt>
      <trkpt lat="43.74833" lon="7.05833">
        <ele>944.63</ele>
        <time>2015-03-27T12:50:56Z</time>
      </trkpt>
      <trkpt lat="43.74836" lon="7.05832">
        <ele>945.11</ele>
        <time>2015-03-27T12:50:59Z</time>
      </trkpt>
      <trkpt lat="43.74838" lon="7.05831">
        <ele>945.11</ele>
        <time>2015-03-27T12:51:01Z</time>
      </trkpt>
      <trkpt lat="43.74843" lon="7.05828">
        <ele>945.59</ele>
        <time>2015-03-27T12:51:06Z</time>
      </trkpt>
      <trkpt lat="43.74846" lon="7.05828">
        <ele>946.07</ele>
        <time>2015-03-27T12:51:09Z</time>
      </trkpt>
      <trkpt lat="43.74848" lon="7.05827">
        <ele>946.56</ele>
        <time>2015-03-27T12:51:11Z</time>
      </trkpt>
      <trkpt lat="43.74859" lon="7.05828">
        <ele>947.52</ele>
        <time>2015-03-27T12:51:22Z</time>
      </trkpt>
      <trkpt lat="43.74866" lon="7.05829">
        <ele>948.48</ele>
        <time>2015-03-27T12:51:30Z</time>
      </trkpt>
      <trkpt lat="43.74877" lon="7.05833">
        <ele>950.4</ele>
        <time>2015-03-27T12:51:42Z</time>
      </trkpt>
      <trkpt lat="43.7488" lon="7.05834">
        <ele>950.4</ele>
        <time>2015-03-27T12:51:45Z</time>
      </trkpt>
      <trkpt lat="43.74882" lon="7.05834">
        <ele>950.88</ele>
        <time>2015-03-27T12:51:48Z</time>
      </trkpt>
      <trkpt lat="43.74893" lon="7.05832">
        <ele>952.32</ele>
        <time>2015-03-27T12:51:58Z</time>
      </trkpt>
      <trkpt lat="43.74895" lon="7.05831">
        <ele>952.32</ele>
        <time>2015-03-27T12:52:00Z</time>
      </trkpt>
      <trkpt lat="43.74906" lon="7.05828">
        <ele>954.25</ele>
        <time>2015-03-27T12:52:12Z</time>
      </trkpt>
      <trkpt lat="43.74913" lon="7.05824">
        <ele>955.69</ele>
        <time>2015-03-27T12:52:21Z</time>
      </trkpt>
      <trkpt lat="43.74916" lon="7.05821">
        <ele>956.65</ele>
        <time>2015-03-27T12:52:26Z</time>
      </trkpt>
      <trkpt lat="43.74925" lon="7.05809">
        <ele>958.09</ele>
        <time>2015-03-27T12:52:39Z</time>
      </trkpt>
      <trkpt lat="43.74931" lon="7.05804">
        <ele>959.53</ele>
        <time>2015-03-27T12:52:48Z</time>
      </trkpt>
      <trkpt lat="43.74935" lon="7.05798">
        <ele>960.01</ele>
        <time>2015-03-27T12:52:57Z</time>
      </trkpt>
      <trkpt lat="43.74936" lon="7.05796">
        <ele>960.01</ele>
        <time>2015-03-27T12:52:59Z</time>
      </trkpt>
      <trkpt lat="43.74938" lon="7.0579">
        <ele>960.98</ele>
        <time>2015-03-27T12:53:04Z</time>
      </trkpt>
      <trkpt lat="43.74939" lon="7.05784">
        <ele>960.98</ele>
        <time>2015-03-27T12:53:15Z</time>
      </trkpt>
      <trkpt lat="43.7494" lon="7.05783">
        <ele>960.98</ele>
        <time>2015-03-27T12:53:20Z</time>
      </trkpt>
      <trkpt lat="43.74941" lon="7.05783">
        <ele>961.46</ele>
        <time>2015-03-27T12:53:31Z</time>
      </trkpt>
      <trkpt lat="43.74941" lon="7.05783">
        <ele>960.49</ele>
        <time>2015-03-27T12:53:52Z</time>
      </trkpt>
      <trkpt lat="43.74941" lon="7.0578">
        <ele>961.46</ele>
        <time>2015-03-27T12:54:13Z</time>
      </trkpt>
      <trkpt lat="43.74948" lon="7.05767">
        <ele>961.46</ele>
        <time>2015-03-27T12:54:24Z</time>
      </trkpt>
      <trkpt lat="43.74955" lon="7.05755">
        <ele>962.9</ele>
        <time>2015-03-27T12:54:35Z</time>
      </trkpt>
      <trkpt lat="43.74957" lon="7.05752">
        <ele>962.9</ele>
        <time>2015-03-27T12:54:48Z</time>
      </trkpt>
      <trkpt lat="43.7496" lon="7.05748">
        <ele>962.9</ele>
        <time>2015-03-27T12:54:52Z</time>
      </trkpt>
      <trkpt lat="43.74967" lon="7.05733">
        <ele>964.34</ele>
        <time>2015-03-27T12:55:04Z</time>
      </trkpt>
      <trkpt lat="43.74973" lon="7.05722">
        <ele>965.3</ele>
        <time>2015-03-27T12:55:13Z</time>
      </trkpt>
      <trkpt lat="43.74976" lon="7.05716">
        <ele>965.78</ele>
        <time>2015-03-27T12:55:17Z</time>
      </trkpt>
      <trkpt lat="43.74977" lon="7.05713">
        <ele>965.78</ele>
        <time>2015-03-27T12:55:19Z</time>
      </trkpt>
      <trkpt lat="43.74981" lon="7.05707">
        <ele>966.26</ele>
        <time>2015-03-27T12:55:24Z</time>
      </trkpt>
      <trkpt lat="43.74988" lon="7.05691">
        <ele>966.74</ele>
        <time>2015-03-27T12:55:36Z</time>
      </trkpt>
      <trkpt lat="43.74995" lon="7.05682">
        <ele>966.74</ele>
        <time>2015-03-27T12:55:44Z</time>
      </trkpt>
      <trkpt lat="43.75002" lon="7.05682">
        <ele>967.7</ele>
        <time>2015-03-27T12:55:53Z</time>
      </trkpt>
      <trkpt lat="43.75008" lon="7.05682">
        <ele>967.7</ele>
        <time>2015-03-27T12:56:02Z</time>
      </trkpt>
      <trkpt lat="43.75012" lon="7.05681">
        <ele>968.18</ele>
        <time>2015-03-27T12:56:06Z</time>
      </trkpt>
      <trkpt lat="43.75021" lon="7.05676">
        <ele>969.15</ele>
        <time>2015-03-27T12:56:13Z</time>
      </trkpt>
      <trkpt lat="43.75028" lon="7.0567">
        <ele>969.63</ele>
        <time>2015-03-27T12:56:21Z</time>
      </trkpt>
      <trkpt lat="43.75039" lon="7.05656">
        <ele>970.59</ele>
        <time>2015-03-27T12:56:33Z</time>
      </trkpt>
      <trkpt lat="43.75039" lon="7.05655">
        <ele>970.59</ele>
        <time>2015-03-27T12:56:34Z</time>
      </trkpt>
      <trkpt lat="43.75043" lon="7.05647">
        <ele>971.07</ele>
        <time>2015-03-27T12:56:40Z</time>
      </trkpt>
      <trkpt lat="43.75044" lon="7.05642">
        <ele>971.07</ele>
        <time>2015-03-27T12:56:43Z</time>
      </trkpt>
      <trkpt lat="43.75051" lon="7.05625">
        <ele>970.59</ele>
        <time>2015-03-27T12:56:55Z</time>
      </trkpt>
      <trkpt lat="43.75061" lon="7.05616">
        <ele>970.59</ele>
        <time>2015-03-27T12:57:06Z</time>
      </trkpt>
      <trkpt lat="43.75073" lon="7.05602">
        <ele>969.63</ele>
        <time>2015-03-27T12:57:19Z</time>
      </trkpt>
      <trkpt lat="43.75077" lon="7.05598">
        <ele>969.15</ele>
        <time>2015-03-27T12:57:23Z</time>
      </trkpt>
      <trkpt lat="43.75088" lon="7.05587">
        <ele>968.67</ele>
        <time>2015-03-27T12:57:35Z</time>
      </trkpt>
      <trkpt lat="43.75089" lon="7.05586">
        <ele>968.18</ele>
        <time>2015-03-27T12:57:36Z</time>
      </trkpt>
      <trkpt lat="43.75095" lon="7.05582">
        <ele>967.7</ele>
        <time>2015-03-27T12:57:42Z</time>
      </trkpt>
      <trkpt lat="43.751" lon="7.05577">
        <ele>967.22</ele>
        <time>2015-03-27T12:57:47Z</time>
      </trkpt>
      <trkpt lat="43.75101" lon="7.05575">
        <ele>967.22</ele>
        <time>2015-03-27T12:57:49Z</time>
      </trkpt>
      <trkpt lat="43.75107" lon="7.05571">
        <ele>966.26</ele>
        <time>2015-03-27T12:57:59Z</time>
      </trkpt>
      <trkpt lat="43.75108" lon="7.05571">
        <ele>966.26</ele>
        <time>2015-03-27T12:58:12Z</time>
      </trkpt>
      <trkpt lat="43.75109" lon="7.05576">
        <ele>965.78</ele>
        <time>2015-03-27T12:58:17Z</time>
      </trkpt>
      <trkpt lat="43.75111" lon="7.05579">
        <ele>965.78</ele>
        <time>2015-03-27T12:58:20Z</time>
      </trkpt>
      <trkpt lat="43.75113" lon="7.0558">
        <ele>965.78</ele>
        <time>2015-03-27T12:58:22Z</time>
      </trkpt>
      <trkpt lat="43.75116" lon="7.05585">
        <ele>965.78</ele>
        <time>2015-03-27T12:58:27Z</time>
      </trkpt>
      <trkpt lat="43.7512" lon="7.05601">
        <ele>965.78</ele>
        <time>2015-03-27T12:58:39Z</time>
      </trkpt>
      <trkpt lat="43.75129" lon="7.05616">
        <ele>965.78</ele>
        <time>2015-03-27T12:58:51Z</time>
      </trkpt>
      <trkpt lat="43.75138" lon="7.05628">
        <ele>964.82</ele>
        <time>2015-03-27T12:59:01Z</time>
      </trkpt>
      <trkpt lat="43.7515" lon="7.05639">
        <ele>964.34</ele>
        <time>2015-03-27T12:59:12Z</time>
      </trkpt>
      <trkpt lat="43.7516" lon="7.05649">
        <ele>963.86</ele>
        <time>2015-03-27T12:59:22Z</time>
      </trkpt>
      <trkpt lat="43.7517" lon="7.05655">
        <ele>963.86</ele>
        <time>2015-03-27T12:59:32Z</time>
      </trkpt>
      <trkpt lat="43.75173" lon="7.05656">
        <ele>963.86</ele>
        <time>2015-03-27T12:59:45Z</time>
      </trkpt>
      <trkpt lat="43.75179" lon="7.05664">
        <ele>964.34</ele>
        <time>2015-03-27T12:59:55Z</time>
      </trkpt>
      <trkpt lat="43.75186" lon="7.05673">
        <ele>963.86</ele>
        <time>2015-03-27T13:00:06Z</time>
      </trkpt>
      <trkpt lat="43.75187" lon="7.05673">
        <ele>963.86</ele>
        <time>2015-03-27T13:00:27Z</time>
      </trkpt>
      <trkpt lat="43.75188" lon="7.05674">
        <ele>962.9</ele>
        <time>2015-03-27T13:00:49Z</time>
      </trkpt>
      <trkpt lat="43.7519" lon="7.05674">
        <ele>961.94</ele>
        <time>2015-03-27T13:00:54Z</time>
      </trkpt>
      <trkpt lat="43.75202" lon="7.05677">
        <ele>960.01</ele>
        <time>2015-03-27T13:01:04Z</time>
      </trkpt>
      <trkpt lat="43.75215" lon="7.05681">
        <ele>959.53</ele>
        <time>2015-03-27T13:01:15Z</time>
      </trkpt>
      <trkpt lat="43.75218" lon="7.05681">
        <ele>959.53</ele>
        <time>2015-03-27T13:01:35Z</time>
      </trkpt>
      <trkpt lat="43.75219" lon="7.05688">
        <ele>960.49</ele>
        <time>2015-03-27T13:01:46Z</time>
      </trkpt>
      <trkpt lat="43.75221" lon="7.057">
        <ele>961.46</ele>
        <time>2015-03-27T13:01:55Z</time>
      </trkpt>
      <trkpt lat="43.75224" lon="7.0571">
        <ele>963.38</ele>
        <time>2015-03-27T13:02:03Z</time>
      </trkpt>
      <trkpt lat="43.75226" lon="7.05714">
        <ele>963.86</ele>
        <time>2015-03-27T13:02:07Z</time>
      </trkpt>
      <trkpt lat="43.75231" lon="7.05724">
        <ele>965.78</ele>
        <time>2015-03-27T13:02:17Z</time>
      </trkpt>
      <trkpt lat="43.75237" lon="7.05735">
        <ele>966.26</ele>
        <time>2015-03-27T13:02:29Z</time>
      </trkpt>
      <trkpt lat="43.7524" lon="7.05739">
        <ele>966.74</ele>
        <time>2015-03-27T13:02:33Z</time>
      </trkpt>
      <trkpt lat="43.7525" lon="7.05749">
        <ele>966.74</ele>
        <time>2015-03-27T13:02:44Z</time>
      </trkpt>
      <trkpt lat="43.75252" lon="7.05752">
        <ele>967.22</ele>
        <time>2015-03-27T13:02:47Z</time>
      </trkpt>
      <trkpt lat="43.75259" lon="7.05761">
        <ele>966.74</ele>
        <time>2015-03-27T13:02:58Z</time>
      </trkpt>
      <trkpt lat="43.75265" lon="7.05773">
        <ele>967.22</ele>
        <time>2015-03-27T13:03:08Z</time>
      </trkpt>
      <trkpt lat="43.7527" lon="7.05783">
        <ele>968.18</ele>
        <time>2015-03-27T13:03:17Z</time>
      </trkpt>
      <trkpt lat="43.75279" lon="7.05795">
        <ele>968.18</ele>
        <time>2015-03-27T13:03:27Z</time>
      </trkpt>
      <trkpt lat="43.75281" lon="7.05808">
        <ele>969.15</ele>
        <time>2015-03-27T13:03:36Z</time>
      </trkpt>
      <trkpt lat="43.75282" lon="7.05813">
        <ele>969.63</ele>
        <time>2015-03-27T13:03:47Z</time>
      </trkpt>
      <trkpt lat="43.75287" lon="7.05812">
        <ele>968.67</ele>
        <time>2015-03-27T13:03:53Z</time>
      </trkpt>
      <trkpt lat="43.75292" lon="7.05824">
        <ele>969.15</ele>
        <time>2015-03-27T13:04:03Z</time>
      </trkpt>
      <trkpt lat="43.75297" lon="7.05835">
        <ele>970.11</ele>
        <time>2015-03-27T13:04:14Z</time>
      </trkpt>
      <trkpt lat="43.75298" lon="7.05838">
        <ele>970.59</ele>
        <time>2015-03-27T13:04:34Z</time>
      </trkpt>
      <trkpt lat="43.75299" lon="7.0585">
        <ele>971.55</ele>
        <time>2015-03-27T13:04:43Z</time>
      </trkpt>
      <trkpt lat="43.753" lon="7.05851">
        <ele>972.03</ele>
        <time>2015-03-27T13:04:44Z</time>
      </trkpt>
      <trkpt lat="43.75302" lon="7.05864">
        <ele>972.99</ele>
        <time>2015-03-27T13:04:55Z</time>
      </trkpt>
      <trkpt lat="43.75303" lon="7.05867">
        <ele>972.99</ele>
        <time>2015-03-27T13:05:05Z</time>
      </trkpt>
      <trkpt lat="43.75302" lon="7.05871">
        <ele>973.95</ele>
        <time>2015-03-27T13:05:08Z</time>
      </trkpt>
      <trkpt lat="43.75303" lon="7.05888">
        <ele>974.43</ele>
        <time>2015-03-27T13:05:21Z</time>
      </trkpt>
      <trkpt lat="43.75304" lon="7.05891">
        <ele>974.43</ele>
        <time>2015-03-27T13:05:33Z</time>
      </trkpt>
      <trkpt lat="43.75304" lon="7.05892">
        <ele>974.91</ele>
        <time>2015-03-27T13:05:43Z</time>
      </trkpt>
      <trkpt lat="43.75305" lon="7.05892">
        <ele>974.43</ele>
        <time>2015-03-27T13:06:00Z</time>
      </trkpt>
      <trkpt lat="43.75312" lon="7.05898">
        <ele>972.51</ele>
        <time>2015-03-27T13:06:11Z</time>
      </trkpt>
      <trkpt lat="43.75313" lon="7.059">
        <ele>972.03</ele>
        <time>2015-03-27T13:06:13Z</time>
      </trkpt>
      <trkpt lat="43.75321" lon="7.05908">
        <ele>970.11</ele>
        <time>2015-03-27T13:06:24Z</time>
      </trkpt>
      <trkpt lat="43.75324" lon="7.05922">
        <ele>970.59</ele>
        <time>2015-03-27T13:06:35Z</time>
      </trkpt>
      <trkpt lat="43.75323" lon="7.05924">
        <ele>970.11</ele>
        <time>2015-03-27T13:06:37Z</time>
      </trkpt>
      <trkpt lat="43.75321" lon="7.05929">
        <ele>971.07</ele>
        <time>2015-03-27T13:06:42Z</time>
      </trkpt>
      <trkpt lat="43.7532" lon="7.05937">
        <ele>971.55</ele>
        <time>2015-03-27T13:06:48Z</time>
      </trkpt>
      <trkpt lat="43.75319" lon="7.05949">
        <ele>971.55</ele>
        <time>2015-03-27T13:06:59Z</time>
      </trkpt>
      <trkpt lat="43.75313" lon="7.05956">
        <ele>972.99</ele>
        <time>2015-03-27T13:07:09Z</time>
      </trkpt>
      <trkpt lat="43.75316" lon="7.05964">
        <ele>973.47</ele>
        <time>2015-03-27T13:07:18Z</time>
      </trkpt>
      <trkpt lat="43.75317" lon="7.05969">
        <ele>972.99</ele>
        <time>2015-03-27T13:07:22Z</time>
      </trkpt>
      <trkpt lat="43.75322" lon="7.05977">
        <ele>973.47</ele>
        <time>2015-03-27T13:07:30Z</time>
      </trkpt>
      <trkpt lat="43.75325" lon="7.05982">
        <ele>973.47</ele>
        <time>2015-03-27T13:07:34Z</time>
      </trkpt>
      <trkpt lat="43.75333" lon="7.05995">
        <ele>973.95</ele>
        <time>2015-03-27T13:07:45Z</time>
      </trkpt>
      <trkpt lat="43.75337" lon="7.06">
        <ele>973.95</ele>
        <time>2015-03-27T13:07:49Z</time>
      </trkpt>
      <trkpt lat="43.75338" lon="7.06007">
        <ele>974.43</ele>
        <time>2015-03-27T13:07:54Z</time>
      </trkpt>
      <trkpt lat="43.75339" lon="7.06012">
        <ele>974.43</ele>
        <time>2015-03-27T13:07:57Z</time>
      </trkpt>
      <trkpt lat="43.7534" lon="7.06023">
        <ele>975.39</ele>
        <time>2015-03-27T13:08:06Z</time>
      </trkpt>
      <trkpt lat="43.75341" lon="7.06036">
        <ele>975.39</ele>
        <time>2015-03-27T13:08:16Z</time>
      </trkpt>
      <trkpt lat="43.7534" lon="7.06051">
        <ele>975.88</ele>
        <time>2015-03-27T13:08:26Z</time>
      </trkpt>
      <trkpt lat="43.7534" lon="7.06052">
        <ele>975.88</ele>
        <time>2015-03-27T13:08:27Z</time>
      </trkpt>
      <trkpt lat="43.75339" lon="7.06058">
        <ele>975.39</ele>
        <time>2015-03-27T13:08:31Z</time>
      </trkpt>
      <trkpt lat="43.75337" lon="7.06079">
        <ele>975.88</ele>
        <time>2015-03-27T13:08:44Z</time>
      </trkpt>
      <trkpt lat="43.75337" lon="7.06083">
        <ele>975.88</ele>
        <time>2015-03-27T13:08:46Z</time>
      </trkpt>
      <trkpt lat="43.75328" lon="7.06099">
        <ele>976.36</ele>
        <time>2015-03-27T13:08:59Z</time>
      </trkpt>
      <trkpt lat="43.75325" lon="7.06103">
        <ele>976.84</ele>
        <time>2015-03-27T13:09:09Z</time>
      </trkpt>
      <trkpt lat="43.75325" lon="7.06103">
        <ele>976.84</ele>
        <time>2015-03-27T13:09:20Z</time>
      </trkpt>
      <trkpt lat="43.75329" lon="7.06115">
        <ele>974.91</ele>
        <time>2015-03-27T13:09:30Z</time>
      </trkpt>
      <trkpt lat="43.75329" lon="7.06127">
        <ele>973.47</ele>
        <time>2015-03-27T13:09:40Z</time>
      </trkpt>
      <trkpt lat="43.75328" lon="7.06131">
        <ele>972.03</ele>
        <time>2015-03-27T13:09:46Z</time>
      </trkpt>
      <trkpt lat="43.75328" lon="7.06145">
        <ele>970.59</ele>
        <time>2015-03-27T13:09:56Z</time>
      </trkpt>
      <trkpt lat="43.75326" lon="7.06155">
        <ele>968.67</ele>
        <time>2015-03-27T13:10:07Z</time>
      </trkpt>
      <trkpt lat="43.75326" lon="7.06155">
        <ele>968.18</ele>
        <time>2015-03-27T13:10:08Z</time>
      </trkpt>
      <trkpt lat="43.75325" lon="7.06162">
        <ele>968.18</ele>
        <time>2015-03-27T13:10:12Z</time>
      </trkpt>
      <trkpt lat="43.75326" lon="7.06173">
        <ele>967.22</ele>
        <time>2015-03-27T13:10:25Z</time>
      </trkpt>
      <trkpt lat="43.75326" lon="7.06173">
        <ele>967.22</ele>
        <time>2015-03-27T13:10:44Z</time>
      </trkpt>
      <trkpt lat="43.75326" lon="7.06173">
        <ele>967.22</ele>
        <time>2015-03-27T13:10:47Z</time>
      </trkpt>
      <trkpt lat="43.75331" lon="7.06185">
        <ele>967.22</ele>
        <time>2015-03-27T13:10:57Z</time>
      </trkpt>
      <trkpt lat="43.75333" lon="7.0619">
        <ele>967.22</ele>
        <time>2015-03-27T13:11:00Z</time>
      </trkpt>
      <trkpt lat="43.75333" lon="7.06201">
        <ele>968.67</ele>
        <time>2015-03-27T13:11:09Z</time>
      </trkpt>
      <trkpt lat="43.75332" lon="7.0621">
        <ele>970.11</ele>
        <time>2015-03-27T13:11:18Z</time>
      </trkpt>
      <trkpt lat="43.75332" lon="7.06211">
        <ele>969.15</ele>
        <time>2015-03-27T13:11:34Z</time>
      </trkpt>
      <trkpt lat="43.75335" lon="7.06222">
        <ele>969.15</ele>
        <time>2015-03-27T13:11:44Z</time>
      </trkpt>
      <trkpt lat="43.75341" lon="7.06226">
        <ele>969.15</ele>
        <time>2015-03-27T13:11:56Z</time>
      </trkpt>
      <trkpt lat="43.75348" lon="7.06234">
        <ele>968.67</ele>
        <time>2015-03-27T13:12:06Z</time>
      </trkpt>
      <trkpt lat="43.75358" lon="7.06246">
        <ele>968.67</ele>
        <time>2015-03-27T13:12:17Z</time>
      </trkpt>
      <trkpt lat="43.75361" lon="7.0625">
        <ele>968.67</ele>
        <time>2015-03-27T13:12:21Z</time>
      </trkpt>
      <trkpt lat="43.75373" lon="7.06263">
        <ele>969.15</ele>
        <time>2015-03-27T13:12:35Z</time>
      </trkpt>
      <trkpt lat="43.75381" lon="7.06271">
        <ele>969.63</ele>
        <time>2015-03-27T13:12:46Z</time>
      </trkpt>
      <trkpt lat="43.75387" lon="7.06276">
        <ele>970.11</ele>
        <time>2015-03-27T13:12:52Z</time>
      </trkpt>
      <trkpt lat="43.75396" lon="7.06291">
        <ele>971.07</ele>
        <time>2015-03-27T13:13:04Z</time>
      </trkpt>
      <trkpt lat="43.754" lon="7.06298">
        <ele>970.59</ele>
        <time>2015-03-27T13:13:11Z</time>
      </trkpt>
      <trkpt lat="43.754" lon="7.06301">
        <ele>971.07</ele>
        <time>2015-03-27T13:13:13Z</time>
      </trkpt>
      <trkpt lat="43.75402" lon="7.0631">
        <ele>972.03</ele>
        <time>2015-03-27T13:13:22Z</time>
      </trkpt>
      <trkpt lat="43.75404" lon="7.06315">
        <ele>972.03</ele>
        <time>2015-03-27T13:13:27Z</time>
      </trkpt>
      <trkpt lat="43.75409" lon="7.06322">
        <ele>971.55</ele>
        <time>2015-03-27T13:13:34Z</time>
      </trkpt>
      <trkpt lat="43.7541" lon="7.06325">
        <ele>971.55</ele>
        <time>2015-03-27T13:13:36Z</time>
      </trkpt>
      <trkpt lat="43.75412" lon="7.06333">
        <ele>971.55</ele>
        <time>2015-03-27T13:13:43Z</time>
      </trkpt>
      <trkpt lat="43.75415" lon="7.06341">
        <ele>970.59</ele>
        <time>2015-03-27T13:13:51Z</time>
      </trkpt>
      <trkpt lat="43.75418" lon="7.06344">
        <ele>970.11</ele>
        <time>2015-03-27T13:13:54Z</time>
      </trkpt>
      <trkpt lat="43.75423" lon="7.0635">
        <ele>968.67</ele>
        <time>2015-03-27T13:14:00Z</time>
      </trkpt>
      <trkpt lat="43.75429" lon="7.06355">
        <ele>968.18</ele>
        <time>2015-03-27T13:14:04Z</time>
      </trkpt>
      <trkpt lat="43.75435" lon="7.06377">
        <ele>967.22</ele>
        <time>2015-03-27T13:14:13Z</time>
      </trkpt>
      <trkpt lat="43.75438" lon="7.0638">
        <ele>966.74</ele>
        <time>2015-03-27T13:14:18Z</time>
      </trkpt>
      <trkpt lat="43.7544" lon="7.06382">
        <ele>965.78</ele>
        <time>2015-03-27T13:14:23Z</time>
      </trkpt>
      <trkpt lat="43.75446" lon="7.06385">
        <ele>964.82</ele>
        <time>2015-03-27T13:14:27Z</time>
      </trkpt>
      <trkpt lat="43.75456" lon="7.06396">
        <ele>963.86</ele>
        <time>2015-03-27T13:14:35Z</time>
      </trkpt>
      <trkpt lat="43.75459" lon="7.06398">
        <ele>962.9</ele>
        <time>2015-03-27T13:14:44Z</time>
      </trkpt>
      <trkpt lat="43.7546" lon="7.064">
        <ele>962.9</ele>
        <time>2015-03-27T13:14:45Z</time>
      </trkpt>
      <trkpt lat="43.75473" lon="7.06413">
        <ele>962.42</ele>
        <time>2015-03-27T13:14:53Z</time>
      </trkpt>
      <trkpt lat="43.75475" lon="7.06419">
        <ele>961.46</ele>
        <time>2015-03-27T13:15:02Z</time>
      </trkpt>
      <trkpt lat="43.75479" lon="7.06424">
        <ele>960.98</ele>
        <time>2015-03-27T13:15:06Z</time>
      </trkpt>
      <trkpt lat="43.75482" lon="7.06431">
        <ele>960.98</ele>
        <time>2015-03-27T13:15:11Z</time>
      </trkpt>
      <trkpt lat="43.75483" lon="7.06434">
        <ele>960.98</ele>
        <time>2015-03-27T13:15:13Z</time>
      </trkpt>
      <trkpt lat="43.75487" lon="7.06451">
        <ele>960.49</ele>
        <time>2015-03-27T13:15:21Z</time>
      </trkpt>
      <trkpt lat="43.7549" lon="7.06455">
        <ele>960.49</ele>
        <time>2015-03-27T13:15:23Z</time>
      </trkpt>
      <trkpt lat="43.75491" lon="7.0646">
        <ele>959.05</ele>
        <time>2015-03-27T13:15:31Z</time>
      </trkpt>
      <trkpt lat="43.75494" lon="7.06465">
        <ele>959.05</ele>
        <time>2015-03-27T13:15:37Z</time>
      </trkpt>
      <trkpt lat="43.75495" lon="7.06466">
        <ele>959.05</ele>
        <time>2015-03-27T13:15:38Z</time>
      </trkpt>
      <trkpt lat="43.75511" lon="7.0648">
        <ele>959.05</ele>
        <time>2015-03-27T13:15:47Z</time>
      </trkpt>
      <trkpt lat="43.75512" lon="7.06485">
        <ele>959.05</ele>
        <time>2015-03-27T13:15:54Z</time>
      </trkpt>
      <trkpt lat="43.7552" lon="7.06491">
        <ele>959.05</ele>
        <time>2015-03-27T13:16:01Z</time>
      </trkpt>
      <trkpt lat="43.7553" lon="7.06499">
        <ele>959.05</ele>
        <time>2015-03-27T13:16:08Z</time>
      </trkpt>
      <trkpt lat="43.75531" lon="7.06501">
        <ele>959.05</ele>
        <time>2015-03-27T13:16:13Z</time>
      </trkpt>
      <trkpt lat="43.75537" lon="7.0651">
        <ele>959.53</ele>
        <time>2015-03-27T13:16:17Z</time>
      </trkpt>
      <trkpt lat="43.75539" lon="7.06513">
        <ele>959.53</ele>
        <time>2015-03-27T13:16:20Z</time>
      </trkpt>
      <trkpt lat="43.75547" lon="7.06516">
        <ele>959.53</ele>
        <time>2015-03-27T13:16:27Z</time>
      </trkpt>
      <trkpt lat="43.75547" lon="7.06516">
        <ele>960.01</ele>
        <time>2015-03-27T13:16:28Z</time>
      </trkpt>
      <trkpt lat="43.75553" lon="7.06518">
        <ele>960.49</ele>
        <time>2015-03-27T13:16:39Z</time>
      </trkpt>
      <trkpt lat="43.75554" lon="7.0653">
        <ele>960.49</ele>
        <time>2015-03-27T13:16:46Z</time>
      </trkpt>
      <trkpt lat="43.75563" lon="7.06542">
        <ele>960.49</ele>
        <time>2015-03-27T13:16:54Z</time>
      </trkpt>
      <trkpt lat="43.75564" lon="7.06548">
        <ele>960.49</ele>
        <time>2015-03-27T13:17:00Z</time>
      </trkpt>
      <trkpt lat="43.75564" lon="7.06551">
        <ele>960.49</ele>
        <time>2015-03-27T13:17:02Z</time>
      </trkpt>
      <trkpt lat="43.75567" lon="7.0657">
        <ele>960.49</ele>
        <time>2015-03-27T13:17:11Z</time>
      </trkpt>
      <trkpt lat="43.75568" lon="7.06571">
        <ele>960.49</ele>
        <time>2015-03-27T13:17:15Z</time>
      </trkpt>
      <trkpt lat="43.7557" lon="7.06576">
        <ele>959.53</ele>
        <time>2015-03-27T13:17:18Z</time>
      </trkpt>
      <trkpt lat="43.75572" lon="7.06581">
        <ele>960.98</ele>
        <time>2015-03-27T13:17:22Z</time>
      </trkpt>
      <trkpt lat="43.75573" lon="7.06585">
        <ele>960.01</ele>
        <time>2015-03-27T13:17:25Z</time>
      </trkpt>
      <trkpt lat="43.75579" lon="7.06597">
        <ele>959.05</ele>
        <time>2015-03-27T13:17:37Z</time>
      </trkpt>
      <trkpt lat="43.75584" lon="7.06604">
        <ele>958.09</ele>
        <time>2015-03-27T13:17:44Z</time>
      </trkpt>
      <trkpt lat="43.75592" lon="7.06611">
        <ele>958.09</ele>
        <time>2015-03-27T13:17:48Z</time>
      </trkpt>
      <trkpt lat="43.75614" lon="7.06635">
        <ele>956.17</ele>
        <time>2015-03-27T13:18:00Z</time>
      </trkpt>
      <trkpt lat="43.75618" lon="7.06642">
        <ele>954.25</ele>
        <time>2015-03-27T13:18:09Z</time>
      </trkpt>
      <trkpt lat="43.75628" lon="7.06651">
        <ele>954.73</ele>
        <time>2015-03-27T13:18:20Z</time>
      </trkpt>
      <trkpt lat="43.75637" lon="7.06661">
        <ele>954.25</ele>
        <time>2015-03-27T13:18:29Z</time>
      </trkpt>
      <trkpt lat="43.75637" lon="7.06668">
        <ele>953.77</ele>
        <time>2015-03-27T13:18:37Z</time>
      </trkpt>
      <trkpt lat="43.75637" lon="7.06669">
        <ele>953.77</ele>
        <time>2015-03-27T13:18:38Z</time>
      </trkpt>
      <trkpt lat="43.7564" lon="7.06675">
        <ele>953.28</ele>
        <time>2015-03-27T13:18:41Z</time>
      </trkpt>
      <trkpt lat="43.75648" lon="7.0669">
        <ele>952.8</ele>
        <time>2015-03-27T13:18:48Z</time>
      </trkpt>
      <trkpt lat="43.75652" lon="7.06699">
        <ele>952.8</ele>
        <time>2015-03-27T13:18:56Z</time>
      </trkpt>
      <trkpt lat="43.7566" lon="7.06713">
        <ele>953.28</ele>
        <time>2015-03-27T13:19:04Z</time>
      </trkpt>
      <trkpt lat="43.7566" lon="7.06719">
        <ele>953.28</ele>
        <time>2015-03-27T13:19:11Z</time>
      </trkpt>
      <trkpt lat="43.75663" lon="7.06729">
        <ele>954.73</ele>
        <time>2015-03-27T13:19:19Z</time>
      </trkpt>
      <trkpt lat="43.75664" lon="7.06735">
        <ele>954.25</ele>
        <time>2015-03-27T13:19:23Z</time>
      </trkpt>
      <trkpt lat="43.7567" lon="7.06744">
        <ele>954.73</ele>
        <time>2015-03-27T13:19:31Z</time>
      </trkpt>
      <trkpt lat="43.75674" lon="7.0675">
        <ele>955.21</ele>
        <time>2015-03-27T13:19:35Z</time>
      </trkpt>
      <trkpt lat="43.75682" lon="7.0676">
        <ele>956.17</ele>
        <time>2015-03-27T13:19:43Z</time>
      </trkpt>
      <trkpt lat="43.75688" lon="7.06771">
        <ele>956.17</ele>
        <time>2015-03-27T13:19:52Z</time>
      </trkpt>
      <trkpt lat="43.75692" lon="7.0678">
        <ele>956.65</ele>
        <time>2015-03-27T13:20:00Z</time>
      </trkpt>
      <trkpt lat="43.75699" lon="7.06789">
        <ele>956.65</ele>
        <time>2015-03-27T13:20:10Z</time>
      </trkpt>
      <trkpt lat="43.7571" lon="7.06803">
        <ele>957.13</ele>
        <time>2015-03-27T13:20:20Z</time>
      </trkpt>
      <trkpt lat="43.75712" lon="7.06805">
        <ele>958.09</ele>
        <time>2015-03-27T13:20:22Z</time>
      </trkpt>
      <trkpt lat="43.75719" lon="7.06817">
        <ele>959.05</ele>
        <time>2015-03-27T13:20:33Z</time>
      </trkpt>
      <trkpt lat="43.75722" lon="7.06821">
        <ele>959.53</ele>
        <time>2015-03-27T13:20:38Z</time>
      </trkpt>
      <trkpt lat="43.75727" lon="7.06832">
        <ele>960.49</ele>
        <time>2015-03-27T13:20:45Z</time>
      </trkpt>
      <trkpt lat="43.75733" lon="7.06844">
        <ele>961.94</ele>
        <time>2015-03-27T13:20:55Z</time>
      </trkpt>
      <trkpt lat="43.7574" lon="7.0685">
        <ele>963.38</ele>
        <time>2015-03-27T13:21:08Z</time>
      </trkpt>
      <trkpt lat="43.75754" lon="7.06854">
        <ele>963.38</ele>
        <time>2015-03-27T13:21:22Z</time>
      </trkpt>
      <trkpt lat="43.75773" lon="7.06862">
        <ele>963.38</ele>
        <time>2015-03-27T13:21:33Z</time>
      </trkpt>
      <trkpt lat="43.75786" lon="7.06865">
        <ele>963.38</ele>
        <time>2015-03-27T13:21:45Z</time>
      </trkpt>
      <trkpt lat="43.75798" lon="7.06868">
        <ele>962.42</ele>
        <time>2015-03-27T13:21:56Z</time>
      </trkpt>
      <trkpt lat="43.75803" lon="7.06873">
        <ele>961.46</ele>
        <time>2015-03-27T13:22:03Z</time>
      </trkpt>
      <trkpt lat="43.75818" lon="7.06886">
        <ele>961.46</ele>
        <time>2015-03-27T13:22:15Z</time>
      </trkpt>
      <trkpt lat="43.75824" lon="7.06892">
        <ele>961.94</ele>
        <time>2015-03-27T13:22:21Z</time>
      </trkpt>
      <trkpt lat="43.75828" lon="7.06896">
        <ele>962.42</ele>
        <time>2015-03-27T13:22:26Z</time>
      </trkpt>
      <trkpt lat="43.75837" lon="7.0691">
        <ele>962.9</ele>
        <time>2015-03-27T13:22:37Z</time>
      </trkpt>
      <trkpt lat="43.75841" lon="7.06918">
        <ele>963.38</ele>
        <time>2015-03-27T13:22:45Z</time>
      </trkpt>
      <trkpt lat="43.75852" lon="7.06924">
        <ele>963.38</ele>
        <time>2015-03-27T13:22:56Z</time>
      </trkpt>
      <trkpt lat="43.75863" lon="7.0692">
        <ele>962.9</ele>
        <time>2015-03-27T13:23:07Z</time>
      </trkpt>
      <trkpt lat="43.75869" lon="7.06921">
        <ele>962.9</ele>
        <time>2015-03-27T13:23:11Z</time>
      </trkpt>
      <trkpt lat="43.75873" lon="7.0692">
        <ele>962.9</ele>
        <time>2015-03-27T13:23:22Z</time>
      </trkpt>
      <trkpt lat="43.75878" lon="7.06923">
        <ele>962.9</ele>
        <time>2015-03-27T13:23:34Z</time>
      </trkpt>
      <trkpt lat="43.75886" lon="7.06927">
        <ele>963.38</ele>
        <time>2015-03-27T13:23:42Z</time>
      </trkpt>
      <trkpt lat="43.75893" lon="7.06929">
        <ele>962.9</ele>
        <time>2015-03-27T13:23:48Z</time>
      </trkpt>
      <trkpt lat="43.75897" lon="7.0693">
        <ele>963.86</ele>
        <time>2015-03-27T13:23:56Z</time>
      </trkpt>
      <trkpt lat="43.75901" lon="7.06932">
        <ele>963.38</ele>
        <time>2015-03-27T13:24:00Z</time>
      </trkpt>
      <trkpt lat="43.75907" lon="7.06935">
        <ele>962.9</ele>
        <time>2015-03-27T13:24:08Z</time>
      </trkpt>
      <trkpt lat="43.75918" lon="7.06935">
        <ele>962.42</ele>
        <time>2015-03-27T13:24:14Z</time>
      </trkpt>
      <trkpt lat="43.75919" lon="7.0694">
        <ele>962.42</ele>
        <time>2015-03-27T13:24:21Z</time>
      </trkpt>
      <trkpt lat="43.75921" lon="7.06951">
        <ele>962.42</ele>
        <time>2015-03-27T13:24:28Z</time>
      </trkpt>
      <trkpt lat="43.75926" lon="7.06962">
        <ele>962.9</ele>
        <time>2015-03-27T13:24:34Z</time>
      </trkpt>
      <trkpt lat="43.75926" lon="7.06963">
        <ele>962.9</ele>
        <time>2015-03-27T13:24:35Z</time>
      </trkpt>
      <trkpt lat="43.75932" lon="7.06977">
        <ele>962.9</ele>
        <time>2015-03-27T13:24:44Z</time>
      </trkpt>
      <trkpt lat="43.75932" lon="7.06982">
        <ele>963.86</ele>
        <time>2015-03-27T13:24:52Z</time>
      </trkpt>
      <trkpt lat="43.75932" lon="7.06984">
        <ele>963.86</ele>
        <time>2015-03-27T13:24:55Z</time>
      </trkpt>
      <trkpt lat="43.7593" lon="7.06989">
        <ele>964.34</ele>
        <time>2015-03-27T13:25:01Z</time>
      </trkpt>
      <trkpt lat="43.75925" lon="7.06997">
        <ele>964.82</ele>
        <time>2015-03-27T13:25:07Z</time>
      </trkpt>
      <trkpt lat="43.75922" lon="7.07001">
        <ele>964.82</ele>
        <time>2015-03-27T13:25:11Z</time>
      </trkpt>
      <trkpt lat="43.75917" lon="7.07005">
        <ele>965.3</ele>
        <time>2015-03-27T13:25:17Z</time>
      </trkpt>
      <trkpt lat="43.75915" lon="7.07013">
        <ele>964.82</ele>
        <time>2015-03-27T13:25:23Z</time>
      </trkpt>
      <trkpt lat="43.75915" lon="7.07014">
        <ele>965.3</ele>
        <time>2015-03-27T13:25:31Z</time>
      </trkpt>
      <trkpt lat="43.75911" lon="7.07012">
        <ele>965.78</ele>
        <time>2015-03-27T13:25:37Z</time>
      </trkpt>
      <trkpt lat="43.75899" lon="7.07012">
        <ele>965.78</ele>
        <time>2015-03-27T13:25:44Z</time>
      </trkpt>
      <trkpt lat="43.75896" lon="7.07015">
        <ele>965.3</ele>
        <time>2015-03-27T13:25:49Z</time>
      </trkpt>
      <trkpt lat="43.75889" lon="7.07021">
        <ele>965.3</ele>
        <time>2015-03-27T13:25:57Z</time>
      </trkpt>
      <trkpt lat="43.75889" lon="7.07022">
        <ele>965.3</ele>
        <time>2015-03-27T13:26:03Z</time>
      </trkpt>
      <trkpt lat="43.75885" lon="7.07032">
        <ele>964.82</ele>
        <time>2015-03-27T13:26:10Z</time>
      </trkpt>
      <trkpt lat="43.75886" lon="7.07034">
        <ele>965.3</ele>
        <time>2015-03-27T13:26:13Z</time>
      </trkpt>
      <trkpt lat="43.75889" lon="7.07037">
        <ele>964.82</ele>
        <time>2015-03-27T13:26:20Z</time>
      </trkpt>
      <trkpt lat="43.75896" lon="7.07041">
        <ele>963.86</ele>
        <time>2015-03-27T13:26:28Z</time>
      </trkpt>
      <trkpt lat="43.75904" lon="7.07045">
        <ele>963.38</ele>
        <time>2015-03-27T13:26:36Z</time>
      </trkpt>
      <trkpt lat="43.75911" lon="7.07053">
        <ele>962.42</ele>
        <time>2015-03-27T13:26:43Z</time>
      </trkpt>
      <trkpt lat="43.75915" lon="7.0706">
        <ele>962.42</ele>
        <time>2015-03-27T13:26:49Z</time>
      </trkpt>
      <trkpt lat="43.75918" lon="7.07069">
        <ele>961.94</ele>
        <time>2015-03-27T13:26:57Z</time>
      </trkpt>
      <trkpt lat="43.75927" lon="7.07079">
        <ele>961.46</ele>
        <time>2015-03-27T13:27:06Z</time>
      </trkpt>
      <trkpt lat="43.75932" lon="7.07092">
        <ele>961.94</ele>
        <time>2015-03-27T13:27:13Z</time>
      </trkpt>
      <trkpt lat="43.75934" lon="7.07093">
        <ele>961.46</ele>
        <time>2015-03-27T13:27:15Z</time>
      </trkpt>
      <trkpt lat="43.75931" lon="7.07096">
        <ele>961.94</ele>
        <time>2015-03-27T13:27:19Z</time>
      </trkpt>
      <trkpt lat="43.75941" lon="7.07111">
        <ele>960.98</ele>
        <time>2015-03-27T13:27:29Z</time>
      </trkpt>
      <trkpt lat="43.75941" lon="7.07113">
        <ele>960.98</ele>
        <time>2015-03-27T13:27:30Z</time>
      </trkpt>
      <trkpt lat="43.75943" lon="7.07117">
        <ele>961.46</ele>
        <time>2015-03-27T13:27:33Z</time>
      </trkpt>
      <trkpt lat="43.75946" lon="7.07121">
        <ele>961.46</ele>
        <time>2015-03-27T13:27:37Z</time>
      </trkpt>
      <trkpt lat="43.75951" lon="7.07136">
        <ele>961.46</ele>
        <time>2015-03-27T13:27:47Z</time>
      </trkpt>
      <trkpt lat="43.75952" lon="7.07138">
        <ele>961.46</ele>
        <time>2015-03-27T13:27:48Z</time>
      </trkpt>
      <trkpt lat="43.75954" lon="7.0714">
        <ele>961.46</ele>
        <time>2015-03-27T13:27:50Z</time>
      </trkpt>
      <trkpt lat="43.7596" lon="7.07152">
        <ele>961.46</ele>
        <time>2015-03-27T13:27:58Z</time>
      </trkpt>
      <trkpt lat="43.75964" lon="7.07159">
        <ele>961.46</ele>
        <time>2015-03-27T13:28:04Z</time>
      </trkpt>
      <trkpt lat="43.75967" lon="7.07166">
        <ele>961.46</ele>
        <time>2015-03-27T13:28:09Z</time>
      </trkpt>
      <trkpt lat="43.75974" lon="7.0717">
        <ele>961.46</ele>
        <time>2015-03-27T13:28:20Z</time>
      </trkpt>
      <trkpt lat="43.75978" lon="7.07173">
        <ele>960.98</ele>
        <time>2015-03-27T13:28:27Z</time>
      </trkpt>
      <trkpt lat="43.75979" lon="7.07174">
        <ele>960.98</ele>
        <time>2015-03-27T13:28:30Z</time>
      </trkpt>
      <trkpt lat="43.75986" lon="7.0718">
        <ele>960.49</ele>
        <time>2015-03-27T13:28:35Z</time>
      </trkpt>
      <trkpt lat="43.75991" lon="7.07184">
        <ele>960.01</ele>
        <time>2015-03-27T13:28:42Z</time>
      </trkpt>
      <trkpt lat="43.75992" lon="7.07186">
        <ele>960.01</ele>
        <time>2015-03-27T13:28:45Z</time>
      </trkpt>
      <trkpt lat="43.75997" lon="7.0719">
        <ele>959.53</ele>
        <time>2015-03-27T13:28:48Z</time>
      </trkpt>
      <trkpt lat="43.76005" lon="7.07191">
        <ele>959.05</ele>
        <time>2015-03-27T13:28:56Z</time>
      </trkpt>
      <trkpt lat="43.76006" lon="7.07196">
        <ele>958.57</ele>
        <time>2015-03-27T13:29:01Z</time>
      </trkpt>
      <trkpt lat="43.76008" lon="7.0721">
        <ele>958.57</ele>
        <time>2015-03-27T13:29:06Z</time>
      </trkpt>
      <trkpt lat="43.76007" lon="7.07228">
        <ele>958.57</ele>
        <time>2015-03-27T13:29:15Z</time>
      </trkpt>
      <trkpt lat="43.76007" lon="7.07229">
        <ele>958.57</ele>
        <time>2015-03-27T13:29:17Z</time>
      </trkpt>
      <trkpt lat="43.76011" lon="7.07239">
        <ele>958.57</ele>
        <time>2015-03-27T13:29:24Z</time>
      </trkpt>
      <trkpt lat="43.76013" lon="7.07246">
        <ele>959.05</ele>
        <time>2015-03-27T13:29:28Z</time>
      </trkpt>
      <trkpt lat="43.76012" lon="7.07252">
        <ele>959.05</ele>
        <time>2015-03-27T13:29:34Z</time>
      </trkpt>
      <trkpt lat="43.76012" lon="7.07262">
        <ele>959.05</ele>
        <time>2015-03-27T13:29:42Z</time>
      </trkpt>
      <trkpt lat="43.76012" lon="7.07265">
        <ele>959.05</ele>
        <time>2015-03-27T13:29:43Z</time>
      </trkpt>
      <trkpt lat="43.76011" lon="7.0728">
        <ele>959.53</ele>
        <time>2015-03-27T13:29:50Z</time>
      </trkpt>
      <trkpt lat="43.7601" lon="7.07282">
        <ele>959.05</ele>
        <time>2015-03-27T13:29:52Z</time>
      </trkpt>
      <trkpt lat="43.76007" lon="7.07294">
        <ele>959.53</ele>
        <time>2015-03-27T13:30:00Z</time>
      </trkpt>
      <trkpt lat="43.76007" lon="7.07305">
        <ele>960.01</ele>
        <time>2015-03-27T13:30:09Z</time>
      </trkpt>
      <trkpt lat="43.76008" lon="7.07308">
        <ele>959.53</ele>
        <time>2015-03-27T13:30:11Z</time>
      </trkpt>
      <trkpt lat="43.76006" lon="7.07318">
        <ele>960.49</ele>
        <time>2015-03-27T13:30:19Z</time>
      </trkpt>
      <trkpt lat="43.76003" lon="7.07328">
        <ele>960.49</ele>
        <time>2015-03-27T13:30:26Z</time>
      </trkpt>
      <trkpt lat="43.76002" lon="7.07333">
        <ele>960.98</ele>
        <time>2015-03-27T13:30:30Z</time>
      </trkpt>
      <trkpt lat="43.76002" lon="7.07351">
        <ele>961.94</ele>
        <time>2015-03-27T13:30:40Z</time>
      </trkpt>
      <trkpt lat="43.76003" lon="7.07352">
        <ele>961.94</ele>
        <time>2015-03-27T13:30:41Z</time>
      </trkpt>
      <trkpt lat="43.76005" lon="7.07369">
        <ele>961.46</ele>
        <time>2015-03-27T13:30:52Z</time>
      </trkpt>
      <trkpt lat="43.76005" lon="7.0737">
        <ele>961.46</ele>
        <time>2015-03-27T13:30:53Z</time>
      </trkpt>
      <trkpt lat="43.76021" lon="7.07385">
        <ele>959.53</ele>
        <time>2015-03-27T13:31:07Z</time>
      </trkpt>
      <trkpt lat="43.76031" lon="7.07407">
        <ele>959.05</ele>
        <time>2015-03-27T13:31:21Z</time>
      </trkpt>
      <trkpt lat="43.76041" lon="7.07419">
        <ele>959.05</ele>
        <time>2015-03-27T13:31:32Z</time>
      </trkpt>
      <trkpt lat="43.76049" lon="7.07437">
        <ele>959.05</ele>
        <time>2015-03-27T13:31:45Z</time>
      </trkpt>
      <trkpt lat="43.76051" lon="7.07443">
        <ele>959.05</ele>
        <time>2015-03-27T13:31:49Z</time>
      </trkpt>
      <trkpt lat="43.76056" lon="7.07458">
        <ele>958.57</ele>
        <time>2015-03-27T13:32:00Z</time>
      </trkpt>
      <trkpt lat="43.76058" lon="7.07462">
        <ele>958.09</ele>
        <time>2015-03-27T13:32:09Z</time>
      </trkpt>
      <trkpt lat="43.76057" lon="7.07463">
        <ele>958.57</ele>
        <time>2015-03-27T13:32:21Z</time>
      </trkpt>
      <trkpt lat="43.76057" lon="7.07463">
        <ele>958.57</ele>
        <time>2015-03-27T13:32:27Z</time>
      </trkpt>
    </trkseg>
  </trk>
</gpx>